<?xml version="1.0" encoding="UTF-8" standalone="no" ?>
<gpx xmlns="http://www.topografix.com/GPX/1/1" xmlns:xsi="http://www.w3.org/2001/XMLSchema-instance" xsi:schemaLocation="http://www.topografix.com/GPX/1/1 http://www.topografix.com/GPX/1/1/gpx.xsd" version="1.1" creator="VisuGPX - https://www.visugpx.com">
  <metadata>
    <name>83-M-Lorgues</name>
    <desc><![CDATA[83-M-Lorgues : le Paroir - les Allemanets ]]></desc>
  </metadata>
  <trk>
    <name><![CDATA[2015-06-17-M-Lorgues]]></name>
    <trkseg>
      <trkpt lat="43.50091" lon="6.37453">
        <ele>277.9</ele>
        <time>2015-06-17T07:11:38Z</time>
      </trkpt>
      <trkpt lat="43.50091" lon="6.37454">
        <ele>277.7</ele>
        <time>2015-06-17T07:11:39Z</time>
      </trkpt>
      <trkpt lat="43.50095" lon="6.37475">
        <ele>272.9</ele>
        <time>2015-06-17T07:11:55Z</time>
      </trkpt>
      <trkpt lat="43.50099" lon="6.37486">
        <ele>271.2</ele>
        <time>2015-06-17T07:12:08Z</time>
      </trkpt>
      <trkpt lat="43.50101" lon="6.37497">
        <ele>270.4</ele>
        <time>2015-06-17T07:12:19Z</time>
      </trkpt>
      <trkpt lat="43.50105" lon="6.37508">
        <ele>267.9</ele>
        <time>2015-06-17T07:12:30Z</time>
      </trkpt>
      <trkpt lat="43.50111" lon="6.37517">
        <ele>267.5</ele>
        <time>2015-06-17T07:12:38Z</time>
      </trkpt>
      <trkpt lat="43.50114" lon="6.37528">
        <ele>267.1</ele>
        <time>2015-06-17T07:12:46Z</time>
      </trkpt>
      <trkpt lat="43.50114" lon="6.37529">
        <ele>267.4</ele>
        <time>2015-06-17T07:12:47Z</time>
      </trkpt>
      <trkpt lat="43.50124" lon="6.37548">
        <ele>264.8</ele>
        <time>2015-06-17T07:13:03Z</time>
      </trkpt>
      <trkpt lat="43.50129" lon="6.37558">
        <ele>263.5</ele>
        <time>2015-06-17T07:13:10Z</time>
      </trkpt>
      <trkpt lat="43.50134" lon="6.37567">
        <ele>263.6</ele>
        <time>2015-06-17T07:13:18Z</time>
      </trkpt>
      <trkpt lat="43.5014" lon="6.37577">
        <ele>262.2</ele>
        <time>2015-06-17T07:13:27Z</time>
      </trkpt>
      <trkpt lat="43.50146" lon="6.37584">
        <ele>261.9</ele>
        <time>2015-06-17T07:13:34Z</time>
      </trkpt>
      <trkpt lat="43.5015" lon="6.37595">
        <ele>261.1</ele>
        <time>2015-06-17T07:13:43Z</time>
      </trkpt>
      <trkpt lat="43.50154" lon="6.37604">
        <ele>261.5</ele>
        <time>2015-06-17T07:13:52Z</time>
      </trkpt>
      <trkpt lat="43.50155" lon="6.37606">
        <ele>261.5</ele>
        <time>2015-06-17T07:13:53Z</time>
      </trkpt>
      <trkpt lat="43.50164" lon="6.37621">
        <ele>260.1</ele>
        <time>2015-06-17T07:14:11Z</time>
      </trkpt>
      <trkpt lat="43.5017" lon="6.37629">
        <ele>260.3</ele>
        <time>2015-06-17T07:14:19Z</time>
      </trkpt>
      <trkpt lat="43.50177" lon="6.37636">
        <ele>260.1</ele>
        <time>2015-06-17T07:14:26Z</time>
      </trkpt>
      <trkpt lat="43.50181" lon="6.37646">
        <ele>259.3</ele>
        <time>2015-06-17T07:14:36Z</time>
      </trkpt>
      <trkpt lat="43.50183" lon="6.37656">
        <ele>259</ele>
        <time>2015-06-17T07:14:45Z</time>
      </trkpt>
      <trkpt lat="43.50185" lon="6.37667">
        <ele>257.6</ele>
        <time>2015-06-17T07:14:53Z</time>
      </trkpt>
      <trkpt lat="43.50185" lon="6.37669">
        <ele>258.1</ele>
        <time>2015-06-17T07:14:54Z</time>
      </trkpt>
      <trkpt lat="43.50186" lon="6.37691">
        <ele>255.5</ele>
        <time>2015-06-17T07:15:14Z</time>
      </trkpt>
      <trkpt lat="43.50188" lon="6.37703">
        <ele>254.7</ele>
        <time>2015-06-17T07:15:22Z</time>
      </trkpt>
      <trkpt lat="43.5019" lon="6.37714">
        <ele>254</ele>
        <time>2015-06-17T07:15:31Z</time>
      </trkpt>
      <trkpt lat="43.50191" lon="6.37725">
        <ele>253.8</ele>
        <time>2015-06-17T07:15:39Z</time>
      </trkpt>
      <trkpt lat="43.50195" lon="6.37736">
        <ele>252.7</ele>
        <time>2015-06-17T07:15:48Z</time>
      </trkpt>
      <trkpt lat="43.50198" lon="6.37746">
        <ele>252.9</ele>
        <time>2015-06-17T07:15:55Z</time>
      </trkpt>
      <trkpt lat="43.50198" lon="6.37748">
        <ele>252.8</ele>
        <time>2015-06-17T07:15:56Z</time>
      </trkpt>
      <trkpt lat="43.50203" lon="6.37767">
        <ele>253.1</ele>
        <time>2015-06-17T07:16:07Z</time>
      </trkpt>
      <trkpt lat="43.50204" lon="6.37778">
        <ele>252.3</ele>
        <time>2015-06-17T07:16:14Z</time>
      </trkpt>
      <trkpt lat="43.50206" lon="6.3779">
        <ele>252.2</ele>
        <time>2015-06-17T07:16:23Z</time>
      </trkpt>
      <trkpt lat="43.50208" lon="6.37801">
        <ele>251.4</ele>
        <time>2015-06-17T07:16:31Z</time>
      </trkpt>
      <trkpt lat="43.50208" lon="6.37811">
        <ele>252</ele>
        <time>2015-06-17T07:16:38Z</time>
      </trkpt>
      <trkpt lat="43.50209" lon="6.37824">
        <ele>252.2</ele>
        <time>2015-06-17T07:16:46Z</time>
      </trkpt>
      <trkpt lat="43.5021" lon="6.37836">
        <ele>252.4</ele>
        <time>2015-06-17T07:16:54Z</time>
      </trkpt>
      <trkpt lat="43.50211" lon="6.37848">
        <ele>250.9</ele>
        <time>2015-06-17T07:17:02Z</time>
      </trkpt>
      <trkpt lat="43.50211" lon="6.3785">
        <ele>251.1</ele>
        <time>2015-06-17T07:17:03Z</time>
      </trkpt>
      <trkpt lat="43.50213" lon="6.37871">
        <ele>251.5</ele>
        <time>2015-06-17T07:17:20Z</time>
      </trkpt>
      <trkpt lat="43.50213" lon="6.37882">
        <ele>251.1</ele>
        <time>2015-06-17T07:17:29Z</time>
      </trkpt>
      <trkpt lat="43.50215" lon="6.37894">
        <ele>250.8</ele>
        <time>2015-06-17T07:17:39Z</time>
      </trkpt>
      <trkpt lat="43.50219" lon="6.37905">
        <ele>249.8</ele>
        <time>2015-06-17T07:17:51Z</time>
      </trkpt>
      <trkpt lat="43.50223" lon="6.37915">
        <ele>249.2</ele>
        <time>2015-06-17T07:18:45Z</time>
      </trkpt>
      <trkpt lat="43.50223" lon="6.37916">
        <ele>249</ele>
        <time>2015-06-17T07:18:46Z</time>
      </trkpt>
      <trkpt lat="43.50231" lon="6.37923">
        <ele>249.3</ele>
        <time>2015-06-17T07:19:51Z</time>
      </trkpt>
      <trkpt lat="43.50245" lon="6.37937">
        <ele>245.8</ele>
        <time>2015-06-17T07:20:48Z</time>
      </trkpt>
      <trkpt lat="43.50245" lon="6.37949">
        <ele>243.9</ele>
        <time>2015-06-17T07:21:02Z</time>
      </trkpt>
      <trkpt lat="43.50245" lon="6.3795">
        <ele>244.1</ele>
        <time>2015-06-17T07:21:03Z</time>
      </trkpt>
      <trkpt lat="43.50242" lon="6.37973">
        <ele>239.6</ele>
        <time>2015-06-17T07:21:34Z</time>
      </trkpt>
      <trkpt lat="43.5024" lon="6.37985">
        <ele>237.8</ele>
        <time>2015-06-17T07:21:46Z</time>
      </trkpt>
      <trkpt lat="43.5024" lon="6.37996">
        <ele>235.8</ele>
        <time>2015-06-17T07:21:58Z</time>
      </trkpt>
      <trkpt lat="43.50236" lon="6.38007">
        <ele>234.1</ele>
        <time>2015-06-17T07:22:10Z</time>
      </trkpt>
      <trkpt lat="43.50236" lon="6.38008">
        <ele>233.5</ele>
        <time>2015-06-17T07:22:11Z</time>
      </trkpt>
      <trkpt lat="43.50229" lon="6.38028">
        <ele>230.5</ele>
        <time>2015-06-17T07:22:32Z</time>
      </trkpt>
      <trkpt lat="43.50223" lon="6.38036">
        <ele>230.5</ele>
        <time>2015-06-17T07:22:44Z</time>
      </trkpt>
      <trkpt lat="43.50219" lon="6.38047">
        <ele>227.7</ele>
        <time>2015-06-17T07:22:59Z</time>
      </trkpt>
      <trkpt lat="43.50212" lon="6.38053">
        <ele>226.8</ele>
        <time>2015-06-17T07:23:09Z</time>
      </trkpt>
      <trkpt lat="43.50206" lon="6.38062">
        <ele>224.6</ele>
        <time>2015-06-17T07:23:25Z</time>
      </trkpt>
      <trkpt lat="43.50205" lon="6.38063">
        <ele>223.8</ele>
        <time>2015-06-17T07:23:26Z</time>
      </trkpt>
      <trkpt lat="43.50194" lon="6.38081">
        <ele>221.1</ele>
        <time>2015-06-17T07:23:49Z</time>
      </trkpt>
      <trkpt lat="43.50189" lon="6.38089">
        <ele>219.9</ele>
        <time>2015-06-17T07:24:06Z</time>
      </trkpt>
      <trkpt lat="43.50183" lon="6.38098">
        <ele>219.7</ele>
        <time>2015-06-17T07:24:14Z</time>
      </trkpt>
      <trkpt lat="43.50179" lon="6.38107">
        <ele>217.1</ele>
        <time>2015-06-17T07:24:22Z</time>
      </trkpt>
      <trkpt lat="43.50178" lon="6.38119">
        <ele>216.6</ele>
        <time>2015-06-17T07:24:31Z</time>
      </trkpt>
      <trkpt lat="43.50178" lon="6.3812">
        <ele>216.5</ele>
        <time>2015-06-17T07:24:32Z</time>
      </trkpt>
      <trkpt lat="43.50177" lon="6.38142">
        <ele>215</ele>
        <time>2015-06-17T07:24:54Z</time>
      </trkpt>
      <trkpt lat="43.50177" lon="6.38154">
        <ele>214.7</ele>
        <time>2015-06-17T07:25:04Z</time>
      </trkpt>
      <trkpt lat="43.50177" lon="6.38165">
        <ele>214.3</ele>
        <time>2015-06-17T07:25:13Z</time>
      </trkpt>
      <trkpt lat="43.50175" lon="6.38176">
        <ele>213.3</ele>
        <time>2015-06-17T07:25:23Z</time>
      </trkpt>
      <trkpt lat="43.50172" lon="6.38187">
        <ele>212.6</ele>
        <time>2015-06-17T07:25:32Z</time>
      </trkpt>
      <trkpt lat="43.50172" lon="6.38188">
        <ele>212.3</ele>
        <time>2015-06-17T07:25:33Z</time>
      </trkpt>
      <trkpt lat="43.50171" lon="6.3821">
        <ele>210.8</ele>
        <time>2015-06-17T07:25:51Z</time>
      </trkpt>
      <trkpt lat="43.50171" lon="6.38222">
        <ele>210.3</ele>
        <time>2015-06-17T07:26:02Z</time>
      </trkpt>
      <trkpt lat="43.50171" lon="6.38233">
        <ele>210.8</ele>
        <time>2015-06-17T07:26:10Z</time>
      </trkpt>
      <trkpt lat="43.50171" lon="6.38245">
        <ele>209.7</ele>
        <time>2015-06-17T07:26:17Z</time>
      </trkpt>
      <trkpt lat="43.50171" lon="6.38256">
        <ele>208.5</ele>
        <time>2015-06-17T07:26:27Z</time>
      </trkpt>
      <trkpt lat="43.50171" lon="6.38268">
        <ele>207.9</ele>
        <time>2015-06-17T07:26:36Z</time>
      </trkpt>
      <trkpt lat="43.50171" lon="6.38269">
        <ele>207.9</ele>
        <time>2015-06-17T07:26:37Z</time>
      </trkpt>
      <trkpt lat="43.50175" lon="6.38291">
        <ele>206.9</ele>
        <time>2015-06-17T07:26:58Z</time>
      </trkpt>
      <trkpt lat="43.50176" lon="6.38303">
        <ele>206.2</ele>
        <time>2015-06-17T07:27:09Z</time>
      </trkpt>
      <trkpt lat="43.50174" lon="6.38315">
        <ele>205.3</ele>
        <time>2015-06-17T07:27:21Z</time>
      </trkpt>
      <trkpt lat="43.50172" lon="6.38326">
        <ele>204.3</ele>
        <time>2015-06-17T07:27:32Z</time>
      </trkpt>
      <trkpt lat="43.50174" lon="6.38338">
        <ele>204.8</ele>
        <time>2015-06-17T07:27:42Z</time>
      </trkpt>
      <trkpt lat="43.50174" lon="6.38339">
        <ele>204.5</ele>
        <time>2015-06-17T07:27:43Z</time>
      </trkpt>
      <trkpt lat="43.50176" lon="6.38362">
        <ele>204.7</ele>
        <time>2015-06-17T07:28:09Z</time>
      </trkpt>
      <trkpt lat="43.50177" lon="6.38373">
        <ele>204.7</ele>
        <time>2015-06-17T07:28:21Z</time>
      </trkpt>
      <trkpt lat="43.50176" lon="6.38385">
        <ele>204.3</ele>
        <time>2015-06-17T07:28:32Z</time>
      </trkpt>
      <trkpt lat="43.50178" lon="6.38397">
        <ele>201.7</ele>
        <time>2015-06-17T07:28:48Z</time>
      </trkpt>
      <trkpt lat="43.50177" lon="6.38399">
        <ele>201.7</ele>
        <time>2015-06-17T07:28:49Z</time>
      </trkpt>
      <trkpt lat="43.50178" lon="6.3842">
        <ele>201.2</ele>
        <time>2015-06-17T07:29:18Z</time>
      </trkpt>
      <trkpt lat="43.50178" lon="6.38432">
        <ele>200.8</ele>
        <time>2015-06-17T07:29:29Z</time>
      </trkpt>
      <trkpt lat="43.50178" lon="6.38444">
        <ele>200.3</ele>
        <time>2015-06-17T07:29:41Z</time>
      </trkpt>
      <trkpt lat="43.50174" lon="6.38454">
        <ele>201.6</ele>
        <time>2015-06-17T07:29:54Z</time>
      </trkpt>
      <trkpt lat="43.50174" lon="6.38455">
        <ele>201.4</ele>
        <time>2015-06-17T07:29:55Z</time>
      </trkpt>
      <trkpt lat="43.50167" lon="6.38474">
        <ele>200.9</ele>
        <time>2015-06-17T07:30:09Z</time>
      </trkpt>
      <trkpt lat="43.50164" lon="6.38485">
        <ele>200.1</ele>
        <time>2015-06-17T07:30:18Z</time>
      </trkpt>
      <trkpt lat="43.50162" lon="6.38496">
        <ele>199.3</ele>
        <time>2015-06-17T07:30:27Z</time>
      </trkpt>
      <trkpt lat="43.50163" lon="6.38508">
        <ele>199.6</ele>
        <time>2015-06-17T07:30:35Z</time>
      </trkpt>
      <trkpt lat="43.50164" lon="6.38521">
        <ele>199.1</ele>
        <time>2015-06-17T07:30:45Z</time>
      </trkpt>
      <trkpt lat="43.50164" lon="6.38533">
        <ele>198.9</ele>
        <time>2015-06-17T07:30:52Z</time>
      </trkpt>
      <trkpt lat="43.50163" lon="6.38544">
        <ele>197.2</ele>
        <time>2015-06-17T07:30:59Z</time>
      </trkpt>
      <trkpt lat="43.50163" lon="6.38546">
        <ele>197.1</ele>
        <time>2015-06-17T07:31:00Z</time>
      </trkpt>
      <trkpt lat="43.50162" lon="6.38568">
        <ele>196.1</ele>
        <time>2015-06-17T07:31:16Z</time>
      </trkpt>
      <trkpt lat="43.5016" lon="6.38579">
        <ele>196.3</ele>
        <time>2015-06-17T07:31:24Z</time>
      </trkpt>
      <trkpt lat="43.50159" lon="6.38591">
        <ele>195.1</ele>
        <time>2015-06-17T07:31:35Z</time>
      </trkpt>
      <trkpt lat="43.50155" lon="6.38602">
        <ele>196.6</ele>
        <time>2015-06-17T07:32:05Z</time>
      </trkpt>
      <trkpt lat="43.50154" lon="6.38602">
        <ele>196.6</ele>
        <time>2015-06-17T07:32:06Z</time>
      </trkpt>
      <trkpt lat="43.50139" lon="6.38609">
        <ele>194.7</ele>
        <time>2015-06-17T07:32:51Z</time>
      </trkpt>
      <trkpt lat="43.50133" lon="6.38617">
        <ele>195.8</ele>
        <time>2015-06-17T07:33:00Z</time>
      </trkpt>
      <trkpt lat="43.50126" lon="6.38625">
        <ele>195.3</ele>
        <time>2015-06-17T07:33:10Z</time>
      </trkpt>
      <trkpt lat="43.50126" lon="6.38626">
        <ele>195.8</ele>
        <time>2015-06-17T07:33:11Z</time>
      </trkpt>
      <trkpt lat="43.50115" lon="6.3864">
        <ele>195.9</ele>
        <time>2015-06-17T07:33:25Z</time>
      </trkpt>
      <trkpt lat="43.50109" lon="6.38649">
        <ele>196.1</ele>
        <time>2015-06-17T07:33:34Z</time>
      </trkpt>
      <trkpt lat="43.50102" lon="6.38656">
        <ele>196.3</ele>
        <time>2015-06-17T07:33:44Z</time>
      </trkpt>
      <trkpt lat="43.50096" lon="6.38665">
        <ele>195.8</ele>
        <time>2015-06-17T07:33:53Z</time>
      </trkpt>
      <trkpt lat="43.50089" lon="6.38673">
        <ele>196.4</ele>
        <time>2015-06-17T07:34:03Z</time>
      </trkpt>
      <trkpt lat="43.50084" lon="6.38682">
        <ele>196</ele>
        <time>2015-06-17T07:34:11Z</time>
      </trkpt>
      <trkpt lat="43.50084" lon="6.38683">
        <ele>195.8</ele>
        <time>2015-06-17T07:34:12Z</time>
      </trkpt>
      <trkpt lat="43.50079" lon="6.38703">
        <ele>194</ele>
        <time>2015-06-17T07:34:29Z</time>
      </trkpt>
      <trkpt lat="43.50082" lon="6.38714">
        <ele>192.9</ele>
        <time>2015-06-17T07:34:38Z</time>
      </trkpt>
      <trkpt lat="43.50085" lon="6.38724">
        <ele>192</ele>
        <time>2015-06-17T07:34:47Z</time>
      </trkpt>
      <trkpt lat="43.50089" lon="6.38734">
        <ele>191</ele>
        <time>2015-06-17T07:34:57Z</time>
      </trkpt>
      <trkpt lat="43.50093" lon="6.38745">
        <ele>191.4</ele>
        <time>2015-06-17T07:35:06Z</time>
      </trkpt>
      <trkpt lat="43.50096" lon="6.38755">
        <ele>190.8</ele>
        <time>2015-06-17T07:35:15Z</time>
      </trkpt>
      <trkpt lat="43.50097" lon="6.38757">
        <ele>190.7</ele>
        <time>2015-06-17T07:35:16Z</time>
      </trkpt>
      <trkpt lat="43.50109" lon="6.38768">
        <ele>189.9</ele>
        <time>2015-06-17T07:35:35Z</time>
      </trkpt>
      <trkpt lat="43.50117" lon="6.3877">
        <ele>189.5</ele>
        <time>2015-06-17T07:35:44Z</time>
      </trkpt>
      <trkpt lat="43.50125" lon="6.38776">
        <ele>188.9</ele>
        <time>2015-06-17T07:35:52Z</time>
      </trkpt>
      <trkpt lat="43.50133" lon="6.38781">
        <ele>189.7</ele>
        <time>2015-06-17T07:36:00Z</time>
      </trkpt>
      <trkpt lat="43.50141" lon="6.38785">
        <ele>188.7</ele>
        <time>2015-06-17T07:36:08Z</time>
      </trkpt>
      <trkpt lat="43.50149" lon="6.38789">
        <ele>189.4</ele>
        <time>2015-06-17T07:36:17Z</time>
      </trkpt>
      <trkpt lat="43.5015" lon="6.38789">
        <ele>189</ele>
        <time>2015-06-17T07:36:18Z</time>
      </trkpt>
      <trkpt lat="43.50165" lon="6.38797">
        <ele>188.8</ele>
        <time>2015-06-17T07:36:34Z</time>
      </trkpt>
      <trkpt lat="43.50173" lon="6.38801">
        <ele>188.9</ele>
        <time>2015-06-17T07:36:42Z</time>
      </trkpt>
      <trkpt lat="43.5018" lon="6.38806">
        <ele>189.3</ele>
        <time>2015-06-17T07:36:50Z</time>
      </trkpt>
      <trkpt lat="43.50188" lon="6.38811">
        <ele>190.1</ele>
        <time>2015-06-17T07:36:59Z</time>
      </trkpt>
      <trkpt lat="43.50195" lon="6.38815">
        <ele>190.6</ele>
        <time>2015-06-17T07:37:06Z</time>
      </trkpt>
      <trkpt lat="43.50203" lon="6.3882">
        <ele>190.7</ele>
        <time>2015-06-17T07:37:15Z</time>
      </trkpt>
      <trkpt lat="43.50209" lon="6.38829">
        <ele>189.7</ele>
        <time>2015-06-17T07:37:24Z</time>
      </trkpt>
      <trkpt lat="43.50209" lon="6.38831">
        <ele>190</ele>
        <time>2015-06-17T07:37:25Z</time>
      </trkpt>
      <trkpt lat="43.50213" lon="6.38852">
        <ele>190.1</ele>
        <time>2015-06-17T07:37:39Z</time>
      </trkpt>
      <trkpt lat="43.50212" lon="6.38865">
        <ele>188.6</ele>
        <time>2015-06-17T07:37:47Z</time>
      </trkpt>
      <trkpt lat="43.50211" lon="6.38876">
        <ele>188</ele>
        <time>2015-06-17T07:37:56Z</time>
      </trkpt>
      <trkpt lat="43.50209" lon="6.38887">
        <ele>187.6</ele>
        <time>2015-06-17T07:38:05Z</time>
      </trkpt>
      <trkpt lat="43.50206" lon="6.38898">
        <ele>187.9</ele>
        <time>2015-06-17T07:38:15Z</time>
      </trkpt>
      <trkpt lat="43.50204" lon="6.3891">
        <ele>187.3</ele>
        <time>2015-06-17T07:38:24Z</time>
      </trkpt>
      <trkpt lat="43.50203" lon="6.38922">
        <ele>187.2</ele>
        <time>2015-06-17T07:38:32Z</time>
      </trkpt>
      <trkpt lat="43.50202" lon="6.38923">
        <ele>187.2</ele>
        <time>2015-06-17T07:38:33Z</time>
      </trkpt>
      <trkpt lat="43.50198" lon="6.38945">
        <ele>187.4</ele>
        <time>2015-06-17T07:38:48Z</time>
      </trkpt>
      <trkpt lat="43.50197" lon="6.38957">
        <ele>188.8</ele>
        <time>2015-06-17T07:38:55Z</time>
      </trkpt>
      <trkpt lat="43.50195" lon="6.38968">
        <ele>187.6</ele>
        <time>2015-06-17T07:39:02Z</time>
      </trkpt>
      <trkpt lat="43.50194" lon="6.38979">
        <ele>187.5</ele>
        <time>2015-06-17T07:39:09Z</time>
      </trkpt>
      <trkpt lat="43.50192" lon="6.38991">
        <ele>187.9</ele>
        <time>2015-06-17T07:39:16Z</time>
      </trkpt>
      <trkpt lat="43.50191" lon="6.39002">
        <ele>187.3</ele>
        <time>2015-06-17T07:39:23Z</time>
      </trkpt>
      <trkpt lat="43.50188" lon="6.39014">
        <ele>187.5</ele>
        <time>2015-06-17T07:39:31Z</time>
      </trkpt>
      <trkpt lat="43.50186" lon="6.39025">
        <ele>188</ele>
        <time>2015-06-17T07:39:39Z</time>
      </trkpt>
      <trkpt lat="43.50186" lon="6.39026">
        <ele>188</ele>
        <time>2015-06-17T07:39:40Z</time>
      </trkpt>
      <trkpt lat="43.50182" lon="6.39047">
        <ele>189.9</ele>
        <time>2015-06-17T07:39:55Z</time>
      </trkpt>
      <trkpt lat="43.5018" lon="6.39059">
        <ele>189.7</ele>
        <time>2015-06-17T07:40:04Z</time>
      </trkpt>
      <trkpt lat="43.50178" lon="6.39071">
        <ele>190.8</ele>
        <time>2015-06-17T07:40:13Z</time>
      </trkpt>
      <trkpt lat="43.50175" lon="6.39083">
        <ele>191.6</ele>
        <time>2015-06-17T07:40:23Z</time>
      </trkpt>
      <trkpt lat="43.50173" lon="6.39094">
        <ele>192.5</ele>
        <time>2015-06-17T07:40:33Z</time>
      </trkpt>
      <trkpt lat="43.5017" lon="6.39105">
        <ele>193.1</ele>
        <time>2015-06-17T07:40:41Z</time>
      </trkpt>
      <trkpt lat="43.50169" lon="6.39107">
        <ele>193.7</ele>
        <time>2015-06-17T07:40:42Z</time>
      </trkpt>
      <trkpt lat="43.50164" lon="6.39126">
        <ele>193.4</ele>
        <time>2015-06-17T07:40:56Z</time>
      </trkpt>
      <trkpt lat="43.50162" lon="6.39137">
        <ele>194.1</ele>
        <time>2015-06-17T07:41:03Z</time>
      </trkpt>
      <trkpt lat="43.50162" lon="6.39149">
        <ele>193.4</ele>
        <time>2015-06-17T07:41:11Z</time>
      </trkpt>
      <trkpt lat="43.50162" lon="6.39161">
        <ele>192.9</ele>
        <time>2015-06-17T07:41:21Z</time>
      </trkpt>
      <trkpt lat="43.50162" lon="6.39172">
        <ele>191.7</ele>
        <time>2015-06-17T07:41:29Z</time>
      </trkpt>
      <trkpt lat="43.5016" lon="6.39183">
        <ele>190.9</ele>
        <time>2015-06-17T07:41:39Z</time>
      </trkpt>
      <trkpt lat="43.50158" lon="6.39194">
        <ele>190.8</ele>
        <time>2015-06-17T07:41:47Z</time>
      </trkpt>
      <trkpt lat="43.50157" lon="6.39195">
        <ele>190.7</ele>
        <time>2015-06-17T07:41:48Z</time>
      </trkpt>
      <trkpt lat="43.50154" lon="6.39217">
        <ele>191.2</ele>
        <time>2015-06-17T07:42:03Z</time>
      </trkpt>
      <trkpt lat="43.50153" lon="6.39228">
        <ele>190.4</ele>
        <time>2015-06-17T07:42:10Z</time>
      </trkpt>
      <trkpt lat="43.50152" lon="6.3924">
        <ele>190</ele>
        <time>2015-06-17T07:42:17Z</time>
      </trkpt>
      <trkpt lat="43.50151" lon="6.39251">
        <ele>189.9</ele>
        <time>2015-06-17T07:42:24Z</time>
      </trkpt>
      <trkpt lat="43.5015" lon="6.39262">
        <ele>190.6</ele>
        <time>2015-06-17T07:42:32Z</time>
      </trkpt>
      <trkpt lat="43.50146" lon="6.39273">
        <ele>189.7</ele>
        <time>2015-06-17T07:42:40Z</time>
      </trkpt>
      <trkpt lat="43.50143" lon="6.39283">
        <ele>190.7</ele>
        <time>2015-06-17T07:42:48Z</time>
      </trkpt>
      <trkpt lat="43.50142" lon="6.39284">
        <ele>190.7</ele>
        <time>2015-06-17T07:42:49Z</time>
      </trkpt>
      <trkpt lat="43.50132" lon="6.39301">
        <ele>191.3</ele>
        <time>2015-06-17T07:43:05Z</time>
      </trkpt>
      <trkpt lat="43.50128" lon="6.39312">
        <ele>192</ele>
        <time>2015-06-17T07:43:14Z</time>
      </trkpt>
      <trkpt lat="43.50125" lon="6.39323">
        <ele>192.8</ele>
        <time>2015-06-17T07:43:22Z</time>
      </trkpt>
      <trkpt lat="43.50121" lon="6.39334">
        <ele>192.2</ele>
        <time>2015-06-17T07:43:30Z</time>
      </trkpt>
      <trkpt lat="43.50118" lon="6.39345">
        <ele>191.9</ele>
        <time>2015-06-17T07:43:38Z</time>
      </trkpt>
      <trkpt lat="43.50118" lon="6.39358">
        <ele>192.3</ele>
        <time>2015-06-17T07:43:46Z</time>
      </trkpt>
      <trkpt lat="43.50116" lon="6.3937">
        <ele>189.7</ele>
        <time>2015-06-17T07:43:55Z</time>
      </trkpt>
      <trkpt lat="43.50116" lon="6.39371">
        <ele>189.6</ele>
        <time>2015-06-17T07:43:56Z</time>
      </trkpt>
      <trkpt lat="43.50118" lon="6.39393">
        <ele>188</ele>
        <time>2015-06-17T07:44:12Z</time>
      </trkpt>
      <trkpt lat="43.50122" lon="6.39405">
        <ele>186.6</ele>
        <time>2015-06-17T07:44:21Z</time>
      </trkpt>
      <trkpt lat="43.50126" lon="6.39415">
        <ele>186.4</ele>
        <time>2015-06-17T07:44:30Z</time>
      </trkpt>
      <trkpt lat="43.50128" lon="6.39426">
        <ele>184.8</ele>
        <time>2015-06-17T07:44:39Z</time>
      </trkpt>
      <trkpt lat="43.5013" lon="6.39437">
        <ele>183.9</ele>
        <time>2015-06-17T07:44:49Z</time>
      </trkpt>
      <trkpt lat="43.50134" lon="6.39448">
        <ele>183.2</ele>
        <time>2015-06-17T07:44:58Z</time>
      </trkpt>
      <trkpt lat="43.50134" lon="6.39449">
        <ele>183.2</ele>
        <time>2015-06-17T07:44:59Z</time>
      </trkpt>
      <trkpt lat="43.50138" lon="6.3947">
        <ele>181.1</ele>
        <time>2015-06-17T07:45:14Z</time>
      </trkpt>
      <trkpt lat="43.5014" lon="6.39482">
        <ele>180.7</ele>
        <time>2015-06-17T07:45:23Z</time>
      </trkpt>
      <trkpt lat="43.5014" lon="6.39494">
        <ele>180.9</ele>
        <time>2015-06-17T07:45:33Z</time>
      </trkpt>
      <trkpt lat="43.5014" lon="6.39506">
        <ele>180.3</ele>
        <time>2015-06-17T07:45:42Z</time>
      </trkpt>
      <trkpt lat="43.5014" lon="6.39517">
        <ele>180.3</ele>
        <time>2015-06-17T07:45:50Z</time>
      </trkpt>
      <trkpt lat="43.50142" lon="6.39529">
        <ele>179.6</ele>
        <time>2015-06-17T07:45:57Z</time>
      </trkpt>
      <trkpt lat="43.50143" lon="6.3954">
        <ele>179.5</ele>
        <time>2015-06-17T07:46:04Z</time>
      </trkpt>
      <trkpt lat="43.50143" lon="6.39542">
        <ele>179.6</ele>
        <time>2015-06-17T07:46:05Z</time>
      </trkpt>
      <trkpt lat="43.50144" lon="6.39564">
        <ele>179.2</ele>
        <time>2015-06-17T07:46:22Z</time>
      </trkpt>
      <trkpt lat="43.50144" lon="6.39576">
        <ele>177.5</ele>
        <time>2015-06-17T07:46:30Z</time>
      </trkpt>
      <trkpt lat="43.50144" lon="6.39587">
        <ele>177.7</ele>
        <time>2015-06-17T07:46:38Z</time>
      </trkpt>
      <trkpt lat="43.50146" lon="6.39598">
        <ele>176.5</ele>
        <time>2015-06-17T07:46:45Z</time>
      </trkpt>
      <trkpt lat="43.50148" lon="6.3961">
        <ele>176.2</ele>
        <time>2015-06-17T07:46:54Z</time>
      </trkpt>
      <trkpt lat="43.50151" lon="6.3962">
        <ele>175.4</ele>
        <time>2015-06-17T07:47:00Z</time>
      </trkpt>
      <trkpt lat="43.50154" lon="6.39631">
        <ele>174.7</ele>
        <time>2015-06-17T07:47:09Z</time>
      </trkpt>
      <trkpt lat="43.50155" lon="6.39632">
        <ele>174.4</ele>
        <time>2015-06-17T07:47:10Z</time>
      </trkpt>
      <trkpt lat="43.50152" lon="6.39653">
        <ele>172.4</ele>
        <time>2015-06-17T07:47:28Z</time>
      </trkpt>
      <trkpt lat="43.50152" lon="6.39665">
        <ele>171.7</ele>
        <time>2015-06-17T07:47:44Z</time>
      </trkpt>
      <trkpt lat="43.50151" lon="6.39676">
        <ele>170.8</ele>
        <time>2015-06-17T07:47:54Z</time>
      </trkpt>
      <trkpt lat="43.5015" lon="6.39687">
        <ele>169.9</ele>
        <time>2015-06-17T07:48:02Z</time>
      </trkpt>
      <trkpt lat="43.50149" lon="6.39698">
        <ele>170.5</ele>
        <time>2015-06-17T07:48:09Z</time>
      </trkpt>
      <trkpt lat="43.50149" lon="6.3971">
        <ele>169.4</ele>
        <time>2015-06-17T07:48:17Z</time>
      </trkpt>
      <trkpt lat="43.50149" lon="6.39712">
        <ele>168.8</ele>
        <time>2015-06-17T07:48:18Z</time>
      </trkpt>
      <trkpt lat="43.50149" lon="6.39734">
        <ele>168.9</ele>
        <time>2015-06-17T07:48:33Z</time>
      </trkpt>
      <trkpt lat="43.50148" lon="6.39746">
        <ele>168.1</ele>
        <time>2015-06-17T07:48:42Z</time>
      </trkpt>
      <trkpt lat="43.50149" lon="6.39757">
        <ele>167</ele>
        <time>2015-06-17T07:48:50Z</time>
      </trkpt>
      <trkpt lat="43.50149" lon="6.39769">
        <ele>166.4</ele>
        <time>2015-06-17T07:48:59Z</time>
      </trkpt>
      <trkpt lat="43.50146" lon="6.3978">
        <ele>164.4</ele>
        <time>2015-06-17T07:49:09Z</time>
      </trkpt>
      <trkpt lat="43.50144" lon="6.39792">
        <ele>164</ele>
        <time>2015-06-17T07:49:18Z</time>
      </trkpt>
      <trkpt lat="43.50144" lon="6.39793">
        <ele>163.8</ele>
        <time>2015-06-17T07:49:19Z</time>
      </trkpt>
      <trkpt lat="43.50145" lon="6.39817">
        <ele>163.5</ele>
        <time>2015-06-17T07:49:34Z</time>
      </trkpt>
      <trkpt lat="43.50145" lon="6.39828">
        <ele>162.6</ele>
        <time>2015-06-17T07:49:41Z</time>
      </trkpt>
      <trkpt lat="43.50145" lon="6.3984">
        <ele>161.7</ele>
        <time>2015-06-17T07:49:49Z</time>
      </trkpt>
      <trkpt lat="43.50144" lon="6.39852">
        <ele>162.1</ele>
        <time>2015-06-17T07:49:58Z</time>
      </trkpt>
      <trkpt lat="43.50146" lon="6.39863">
        <ele>161.3</ele>
        <time>2015-06-17T07:50:05Z</time>
      </trkpt>
      <trkpt lat="43.50145" lon="6.39874">
        <ele>161</ele>
        <time>2015-06-17T07:50:14Z</time>
      </trkpt>
      <trkpt lat="43.50144" lon="6.39887">
        <ele>161.7</ele>
        <time>2015-06-17T07:50:22Z</time>
      </trkpt>
      <trkpt lat="43.50144" lon="6.39889">
        <ele>161.4</ele>
        <time>2015-06-17T07:50:23Z</time>
      </trkpt>
      <trkpt lat="43.50146" lon="6.3991">
        <ele>159.8</ele>
        <time>2015-06-17T07:50:37Z</time>
      </trkpt>
      <trkpt lat="43.50149" lon="6.39921">
        <ele>160</ele>
        <time>2015-06-17T07:50:45Z</time>
      </trkpt>
      <trkpt lat="43.50151" lon="6.39932">
        <ele>160.4</ele>
        <time>2015-06-17T07:50:53Z</time>
      </trkpt>
      <trkpt lat="43.50155" lon="6.39942">
        <ele>159.9</ele>
        <time>2015-06-17T07:51:01Z</time>
      </trkpt>
      <trkpt lat="43.50161" lon="6.39951">
        <ele>159.6</ele>
        <time>2015-06-17T07:51:09Z</time>
      </trkpt>
      <trkpt lat="43.50165" lon="6.39961">
        <ele>159.6</ele>
        <time>2015-06-17T07:51:17Z</time>
      </trkpt>
      <trkpt lat="43.5017" lon="6.3997">
        <ele>159.3</ele>
        <time>2015-06-17T07:51:26Z</time>
      </trkpt>
      <trkpt lat="43.5017" lon="6.39971">
        <ele>159.4</ele>
        <time>2015-06-17T07:51:27Z</time>
      </trkpt>
      <trkpt lat="43.50182" lon="6.39987">
        <ele>158.8</ele>
        <time>2015-06-17T07:51:45Z</time>
      </trkpt>
      <trkpt lat="43.5019" lon="6.39994">
        <ele>159.9</ele>
        <time>2015-06-17T07:51:53Z</time>
      </trkpt>
      <trkpt lat="43.50197" lon="6.39997">
        <ele>160.3</ele>
        <time>2015-06-17T07:52:00Z</time>
      </trkpt>
      <trkpt lat="43.50206" lon="6.4">
        <ele>160.2</ele>
        <time>2015-06-17T07:52:06Z</time>
      </trkpt>
      <trkpt lat="43.50214" lon="6.40002">
        <ele>160.3</ele>
        <time>2015-06-17T07:52:15Z</time>
      </trkpt>
      <trkpt lat="43.50223" lon="6.40003">
        <ele>159.4</ele>
        <time>2015-06-17T07:52:22Z</time>
      </trkpt>
      <trkpt lat="43.50232" lon="6.40005">
        <ele>159.7</ele>
        <time>2015-06-17T07:52:28Z</time>
      </trkpt>
      <trkpt lat="43.50233" lon="6.40005">
        <ele>159.5</ele>
        <time>2015-06-17T07:52:29Z</time>
      </trkpt>
      <trkpt lat="43.50249" lon="6.40007">
        <ele>158.1</ele>
        <time>2015-06-17T07:52:44Z</time>
      </trkpt>
      <trkpt lat="43.50257" lon="6.40004">
        <ele>158.1</ele>
        <time>2015-06-17T07:52:53Z</time>
      </trkpt>
      <trkpt lat="43.50265" lon="6.40003">
        <ele>156.9</ele>
        <time>2015-06-17T07:53:00Z</time>
      </trkpt>
      <trkpt lat="43.50274" lon="6.40004">
        <ele>156.3</ele>
        <time>2015-06-17T07:53:09Z</time>
      </trkpt>
      <trkpt lat="43.50281" lon="6.40008">
        <ele>156.7</ele>
        <time>2015-06-17T07:53:18Z</time>
      </trkpt>
      <trkpt lat="43.50288" lon="6.40012">
        <ele>156.1</ele>
        <time>2015-06-17T07:53:26Z</time>
      </trkpt>
      <trkpt lat="43.50295" lon="6.40018">
        <ele>155.3</ele>
        <time>2015-06-17T07:53:33Z</time>
      </trkpt>
      <trkpt lat="43.50297" lon="6.40018">
        <ele>155</ele>
        <time>2015-06-17T07:53:34Z</time>
      </trkpt>
      <trkpt lat="43.50306" lon="6.40035">
        <ele>153.4</ele>
        <time>2015-06-17T07:53:52Z</time>
      </trkpt>
      <trkpt lat="43.50302" lon="6.40045">
        <ele>154.2</ele>
        <time>2015-06-17T07:54:02Z</time>
      </trkpt>
      <trkpt lat="43.50297" lon="6.40055">
        <ele>153.8</ele>
        <time>2015-06-17T07:54:11Z</time>
      </trkpt>
      <trkpt lat="43.50293" lon="6.40064">
        <ele>153.8</ele>
        <time>2015-06-17T07:54:20Z</time>
      </trkpt>
      <trkpt lat="43.50288" lon="6.40075">
        <ele>154</ele>
        <time>2015-06-17T07:54:30Z</time>
      </trkpt>
      <trkpt lat="43.50285" lon="6.40086">
        <ele>154.4</ele>
        <time>2015-06-17T07:54:46Z</time>
      </trkpt>
      <trkpt lat="43.50284" lon="6.40087">
        <ele>154.1</ele>
        <time>2015-06-17T07:54:47Z</time>
      </trkpt>
      <trkpt lat="43.50287" lon="6.40089">
        <ele>152.7</ele>
        <time>2015-06-17T07:59:36Z</time>
      </trkpt>
      <trkpt lat="43.50288" lon="6.40088">
        <ele>152.3</ele>
        <time>2015-06-17T07:59:37Z</time>
      </trkpt>
      <trkpt lat="43.50296" lon="6.4007">
        <ele>152.9</ele>
        <time>2015-06-17T07:59:56Z</time>
      </trkpt>
      <trkpt lat="43.50302" lon="6.40061">
        <ele>153.4</ele>
        <time>2015-06-17T08:00:06Z</time>
      </trkpt>
      <trkpt lat="43.50307" lon="6.40052">
        <ele>153.5</ele>
        <time>2015-06-17T08:00:14Z</time>
      </trkpt>
      <trkpt lat="43.50312" lon="6.40042">
        <ele>152.4</ele>
        <time>2015-06-17T08:00:28Z</time>
      </trkpt>
      <trkpt lat="43.5032" lon="6.40038">
        <ele>152.1</ele>
        <time>2015-06-17T08:01:15Z</time>
      </trkpt>
      <trkpt lat="43.50321" lon="6.40038">
        <ele>152.2</ele>
        <time>2015-06-17T08:01:16Z</time>
      </trkpt>
      <trkpt lat="43.50336" lon="6.40042">
        <ele>152.8</ele>
        <time>2015-06-17T08:01:32Z</time>
      </trkpt>
      <trkpt lat="43.50344" lon="6.40047">
        <ele>152.3</ele>
        <time>2015-06-17T08:01:42Z</time>
      </trkpt>
      <trkpt lat="43.50352" lon="6.40052">
        <ele>152.3</ele>
        <time>2015-06-17T08:01:52Z</time>
      </trkpt>
      <trkpt lat="43.50359" lon="6.40058">
        <ele>152.9</ele>
        <time>2015-06-17T08:02:03Z</time>
      </trkpt>
      <trkpt lat="43.50365" lon="6.40067">
        <ele>152.7</ele>
        <time>2015-06-17T08:02:15Z</time>
      </trkpt>
      <trkpt lat="43.5037" lon="6.40076">
        <ele>152.6</ele>
        <time>2015-06-17T08:02:25Z</time>
      </trkpt>
      <trkpt lat="43.50371" lon="6.40077">
        <ele>152.8</ele>
        <time>2015-06-17T08:02:26Z</time>
      </trkpt>
      <trkpt lat="43.50383" lon="6.4009">
        <ele>152.7</ele>
        <time>2015-06-17T08:02:42Z</time>
      </trkpt>
      <trkpt lat="43.5039" lon="6.40097">
        <ele>153.1</ele>
        <time>2015-06-17T08:02:51Z</time>
      </trkpt>
      <trkpt lat="43.50398" lon="6.40097">
        <ele>153</ele>
        <time>2015-06-17T08:02:59Z</time>
      </trkpt>
      <trkpt lat="43.50406" lon="6.40093">
        <ele>154.2</ele>
        <time>2015-06-17T08:03:11Z</time>
      </trkpt>
      <trkpt lat="43.50413" lon="6.40086">
        <ele>154.8</ele>
        <time>2015-06-17T08:03:23Z</time>
      </trkpt>
      <trkpt lat="43.50421" lon="6.4008">
        <ele>155.2</ele>
        <time>2015-06-17T08:03:35Z</time>
      </trkpt>
      <trkpt lat="43.50422" lon="6.40079">
        <ele>155.3</ele>
        <time>2015-06-17T08:03:36Z</time>
      </trkpt>
      <trkpt lat="43.50433" lon="6.40064">
        <ele>156.4</ele>
        <time>2015-06-17T08:03:56Z</time>
      </trkpt>
      <trkpt lat="43.5044" lon="6.40056">
        <ele>158</ele>
        <time>2015-06-17T08:04:07Z</time>
      </trkpt>
      <trkpt lat="43.50448" lon="6.40051">
        <ele>158</ele>
        <time>2015-06-17T08:04:17Z</time>
      </trkpt>
      <trkpt lat="43.50455" lon="6.40045">
        <ele>158.5</ele>
        <time>2015-06-17T08:04:25Z</time>
      </trkpt>
      <trkpt lat="43.50462" lon="6.40038">
        <ele>158.7</ele>
        <time>2015-06-17T08:04:35Z</time>
      </trkpt>
      <trkpt lat="43.50471" lon="6.40033">
        <ele>159.7</ele>
        <time>2015-06-17T08:04:43Z</time>
      </trkpt>
      <trkpt lat="43.50471" lon="6.40033">
        <ele>159.7</ele>
        <time>2015-06-17T08:04:44Z</time>
      </trkpt>
      <trkpt lat="43.50485" lon="6.40021">
        <ele>161.9</ele>
        <time>2015-06-17T08:05:05Z</time>
      </trkpt>
      <trkpt lat="43.50492" lon="6.40016">
        <ele>162.1</ele>
        <time>2015-06-17T08:05:12Z</time>
      </trkpt>
      <trkpt lat="43.50501" lon="6.40011">
        <ele>162.4</ele>
        <time>2015-06-17T08:05:21Z</time>
      </trkpt>
      <trkpt lat="43.50507" lon="6.40003">
        <ele>163.7</ele>
        <time>2015-06-17T08:05:29Z</time>
      </trkpt>
      <trkpt lat="43.50511" lon="6.39993">
        <ele>163.2</ele>
        <time>2015-06-17T08:05:38Z</time>
      </trkpt>
      <trkpt lat="43.50516" lon="6.39984">
        <ele>161.4</ele>
        <time>2015-06-17T08:05:48Z</time>
      </trkpt>
      <trkpt lat="43.50517" lon="6.39983">
        <ele>161.4</ele>
        <time>2015-06-17T08:05:49Z</time>
      </trkpt>
      <trkpt lat="43.5053" lon="6.39969">
        <ele>161</ele>
        <time>2015-06-17T08:07:09Z</time>
      </trkpt>
      <trkpt lat="43.5053" lon="6.39969">
        <ele>161.1</ele>
        <time>2015-06-17T08:07:10Z</time>
      </trkpt>
      <trkpt lat="43.50522" lon="6.3995">
        <ele>162.2</ele>
        <time>2015-06-17T08:07:39Z</time>
      </trkpt>
      <trkpt lat="43.50521" lon="6.39938">
        <ele>161.6</ele>
        <time>2015-06-17T08:07:48Z</time>
      </trkpt>
      <trkpt lat="43.50515" lon="6.39929">
        <ele>161.8</ele>
        <time>2015-06-17T08:07:58Z</time>
      </trkpt>
      <trkpt lat="43.50513" lon="6.39917">
        <ele>162</ele>
        <time>2015-06-17T08:08:14Z</time>
      </trkpt>
      <trkpt lat="43.50513" lon="6.39917">
        <ele>161.9</ele>
        <time>2015-06-17T08:08:15Z</time>
      </trkpt>
      <trkpt lat="43.50508" lon="6.39896">
        <ele>161.5</ele>
        <time>2015-06-17T08:09:03Z</time>
      </trkpt>
      <trkpt lat="43.50501" lon="6.39889">
        <ele>162.5</ele>
        <time>2015-06-17T08:09:23Z</time>
      </trkpt>
      <trkpt lat="43.505" lon="6.39888">
        <ele>162.5</ele>
        <time>2015-06-17T08:09:24Z</time>
      </trkpt>
      <trkpt lat="43.50484" lon="6.39881">
        <ele>163.1</ele>
        <time>2015-06-17T08:09:54Z</time>
      </trkpt>
      <trkpt lat="43.50477" lon="6.39875">
        <ele>163.9</ele>
        <time>2015-06-17T08:10:06Z</time>
      </trkpt>
      <trkpt lat="43.50471" lon="6.39867">
        <ele>163.3</ele>
        <time>2015-06-17T08:10:17Z</time>
      </trkpt>
      <trkpt lat="43.50464" lon="6.39859">
        <ele>163.2</ele>
        <time>2015-06-17T08:10:37Z</time>
      </trkpt>
      <trkpt lat="43.50464" lon="6.39859">
        <ele>163.2</ele>
        <time>2015-06-17T08:10:38Z</time>
      </trkpt>
      <trkpt lat="43.50454" lon="6.3984">
        <ele>163.6</ele>
        <time>2015-06-17T08:11:04Z</time>
      </trkpt>
      <trkpt lat="43.50447" lon="6.39832">
        <ele>164.4</ele>
        <time>2015-06-17T08:11:16Z</time>
      </trkpt>
      <trkpt lat="43.50443" lon="6.39822">
        <ele>164.9</ele>
        <time>2015-06-17T08:11:27Z</time>
      </trkpt>
      <trkpt lat="43.50441" lon="6.3981">
        <ele>165.1</ele>
        <time>2015-06-17T08:11:42Z</time>
      </trkpt>
      <trkpt lat="43.50441" lon="6.39809">
        <ele>165.3</ele>
        <time>2015-06-17T08:11:43Z</time>
      </trkpt>
      <trkpt lat="43.5044" lon="6.39787">
        <ele>165.6</ele>
        <time>2015-06-17T08:12:05Z</time>
      </trkpt>
      <trkpt lat="43.50438" lon="6.39775">
        <ele>166.4</ele>
        <time>2015-06-17T08:12:16Z</time>
      </trkpt>
      <trkpt lat="43.50436" lon="6.39764">
        <ele>166.7</ele>
        <time>2015-06-17T08:12:31Z</time>
      </trkpt>
      <trkpt lat="43.50435" lon="6.39752">
        <ele>167.3</ele>
        <time>2015-06-17T08:12:42Z</time>
      </trkpt>
      <trkpt lat="43.5043" lon="6.39742">
        <ele>167.3</ele>
        <time>2015-06-17T08:12:53Z</time>
      </trkpt>
      <trkpt lat="43.5043" lon="6.39741">
        <ele>167.2</ele>
        <time>2015-06-17T08:12:54Z</time>
      </trkpt>
      <trkpt lat="43.50421" lon="6.39722">
        <ele>168.3</ele>
        <time>2015-06-17T08:13:18Z</time>
      </trkpt>
      <trkpt lat="43.50418" lon="6.39711">
        <ele>169.2</ele>
        <time>2015-06-17T08:13:33Z</time>
      </trkpt>
      <trkpt lat="43.50422" lon="6.39701">
        <ele>167.9</ele>
        <time>2015-06-17T08:13:43Z</time>
      </trkpt>
      <trkpt lat="43.50425" lon="6.39689">
        <ele>167.1</ele>
        <time>2015-06-17T08:13:56Z</time>
      </trkpt>
      <trkpt lat="43.50425" lon="6.39688">
        <ele>167.2</ele>
        <time>2015-06-17T08:13:57Z</time>
      </trkpt>
      <trkpt lat="43.50424" lon="6.39667">
        <ele>167.7</ele>
        <time>2015-06-17T08:14:16Z</time>
      </trkpt>
      <trkpt lat="43.5042" lon="6.39656">
        <ele>167.7</ele>
        <time>2015-06-17T08:14:26Z</time>
      </trkpt>
      <trkpt lat="43.50417" lon="6.39645">
        <ele>168.3</ele>
        <time>2015-06-17T08:14:35Z</time>
      </trkpt>
      <trkpt lat="43.50418" lon="6.39634">
        <ele>168.3</ele>
        <time>2015-06-17T08:14:44Z</time>
      </trkpt>
      <trkpt lat="43.50418" lon="6.39622">
        <ele>168.7</ele>
        <time>2015-06-17T08:14:52Z</time>
      </trkpt>
      <trkpt lat="43.50421" lon="6.39611">
        <ele>168.6</ele>
        <time>2015-06-17T08:15:06Z</time>
      </trkpt>
      <trkpt lat="43.50422" lon="6.3961">
        <ele>168.4</ele>
        <time>2015-06-17T08:15:07Z</time>
      </trkpt>
      <trkpt lat="43.5043" lon="6.39592">
        <ele>168.1</ele>
        <time>2015-06-17T08:15:24Z</time>
      </trkpt>
      <trkpt lat="43.50434" lon="6.39582">
        <ele>168.4</ele>
        <time>2015-06-17T08:15:33Z</time>
      </trkpt>
      <trkpt lat="43.50438" lon="6.39572">
        <ele>167.9</ele>
        <time>2015-06-17T08:15:42Z</time>
      </trkpt>
      <trkpt lat="43.50441" lon="6.39561">
        <ele>168.1</ele>
        <time>2015-06-17T08:15:51Z</time>
      </trkpt>
      <trkpt lat="43.50444" lon="6.3955">
        <ele>168.4</ele>
        <time>2015-06-17T08:15:58Z</time>
      </trkpt>
      <trkpt lat="43.50446" lon="6.39538">
        <ele>168.8</ele>
        <time>2015-06-17T08:16:06Z</time>
      </trkpt>
      <trkpt lat="43.50447" lon="6.39527">
        <ele>169</ele>
        <time>2015-06-17T08:16:13Z</time>
      </trkpt>
      <trkpt lat="43.50447" lon="6.39526">
        <ele>169</ele>
        <time>2015-06-17T08:16:14Z</time>
      </trkpt>
      <trkpt lat="43.50452" lon="6.39505">
        <ele>169.1</ele>
        <time>2015-06-17T08:16:32Z</time>
      </trkpt>
      <trkpt lat="43.50454" lon="6.39494">
        <ele>169.2</ele>
        <time>2015-06-17T08:16:41Z</time>
      </trkpt>
      <trkpt lat="43.50458" lon="6.39484">
        <ele>169.3</ele>
        <time>2015-06-17T08:16:50Z</time>
      </trkpt>
      <trkpt lat="43.50461" lon="6.39473">
        <ele>169.6</ele>
        <time>2015-06-17T08:16:59Z</time>
      </trkpt>
      <trkpt lat="43.50465" lon="6.39463">
        <ele>170.2</ele>
        <time>2015-06-17T08:17:08Z</time>
      </trkpt>
      <trkpt lat="43.50465" lon="6.39451">
        <ele>170.3</ele>
        <time>2015-06-17T08:17:15Z</time>
      </trkpt>
      <trkpt lat="43.50465" lon="6.3945">
        <ele>170.3</ele>
        <time>2015-06-17T08:17:16Z</time>
      </trkpt>
      <trkpt lat="43.50471" lon="6.3943">
        <ele>170.8</ele>
        <time>2015-06-17T08:17:30Z</time>
      </trkpt>
      <trkpt lat="43.50477" lon="6.39422">
        <ele>170.3</ele>
        <time>2015-06-17T08:17:38Z</time>
      </trkpt>
      <trkpt lat="43.50485" lon="6.39416">
        <ele>171.4</ele>
        <time>2015-06-17T08:17:48Z</time>
      </trkpt>
      <trkpt lat="43.5049" lon="6.39407">
        <ele>171.3</ele>
        <time>2015-06-17T08:17:56Z</time>
      </trkpt>
      <trkpt lat="43.50494" lon="6.39398">
        <ele>171.5</ele>
        <time>2015-06-17T08:18:04Z</time>
      </trkpt>
      <trkpt lat="43.50497" lon="6.39387">
        <ele>171.2</ele>
        <time>2015-06-17T08:18:11Z</time>
      </trkpt>
      <trkpt lat="43.505" lon="6.39377">
        <ele>171.7</ele>
        <time>2015-06-17T08:18:18Z</time>
      </trkpt>
      <trkpt lat="43.50501" lon="6.39375">
        <ele>171.6</ele>
        <time>2015-06-17T08:18:19Z</time>
      </trkpt>
      <trkpt lat="43.50501" lon="6.39354">
        <ele>171.9</ele>
        <time>2015-06-17T08:18:37Z</time>
      </trkpt>
      <trkpt lat="43.50497" lon="6.39343">
        <ele>171.9</ele>
        <time>2015-06-17T08:18:46Z</time>
      </trkpt>
      <trkpt lat="43.50497" lon="6.39331">
        <ele>171.9</ele>
        <time>2015-06-17T08:18:59Z</time>
      </trkpt>
      <trkpt lat="43.50504" lon="6.39326">
        <ele>171.2</ele>
        <time>2015-06-17T08:19:09Z</time>
      </trkpt>
      <trkpt lat="43.50512" lon="6.39322">
        <ele>172.3</ele>
        <time>2015-06-17T08:19:17Z</time>
      </trkpt>
      <trkpt lat="43.50519" lon="6.39315">
        <ele>171.5</ele>
        <time>2015-06-17T08:19:27Z</time>
      </trkpt>
      <trkpt lat="43.5052" lon="6.39315">
        <ele>171.8</ele>
        <time>2015-06-17T08:19:28Z</time>
      </trkpt>
      <trkpt lat="43.50529" lon="6.39296">
        <ele>171.9</ele>
        <time>2015-06-17T08:19:49Z</time>
      </trkpt>
      <trkpt lat="43.5053" lon="6.39284">
        <ele>173.3</ele>
        <time>2015-06-17T08:19:58Z</time>
      </trkpt>
      <trkpt lat="43.50532" lon="6.39272">
        <ele>174.6</ele>
        <time>2015-06-17T08:20:12Z</time>
      </trkpt>
      <trkpt lat="43.50532" lon="6.3926">
        <ele>175.5</ele>
        <time>2015-06-17T08:20:23Z</time>
      </trkpt>
      <trkpt lat="43.5053" lon="6.39248">
        <ele>176.4</ele>
        <time>2015-06-17T08:20:34Z</time>
      </trkpt>
      <trkpt lat="43.50529" lon="6.39248">
        <ele>176.7</ele>
        <time>2015-06-17T08:20:35Z</time>
      </trkpt>
      <trkpt lat="43.50514" lon="6.39255">
        <ele>177.2</ele>
        <time>2015-06-17T08:20:58Z</time>
      </trkpt>
      <trkpt lat="43.50506" lon="6.39261">
        <ele>178.8</ele>
        <time>2015-06-17T08:21:11Z</time>
      </trkpt>
      <trkpt lat="43.50501" lon="6.39251">
        <ele>178.5</ele>
        <time>2015-06-17T08:21:24Z</time>
      </trkpt>
      <trkpt lat="43.50502" lon="6.39239">
        <ele>179.1</ele>
        <time>2015-06-17T08:21:35Z</time>
      </trkpt>
      <trkpt lat="43.50502" lon="6.39238">
        <ele>179.1</ele>
        <time>2015-06-17T08:21:36Z</time>
      </trkpt>
      <trkpt lat="43.50492" lon="6.39221">
        <ele>180</ele>
        <time>2015-06-17T08:22:04Z</time>
      </trkpt>
      <trkpt lat="43.50484" lon="6.39218">
        <ele>179.4</ele>
        <time>2015-06-17T08:22:13Z</time>
      </trkpt>
      <trkpt lat="43.50477" lon="6.39222">
        <ele>178.6</ele>
        <time>2015-06-17T08:22:25Z</time>
      </trkpt>
      <trkpt lat="43.50473" lon="6.39232">
        <ele>178</ele>
        <time>2015-06-17T08:22:35Z</time>
      </trkpt>
      <trkpt lat="43.50466" lon="6.39239">
        <ele>177.5</ele>
        <time>2015-06-17T08:22:52Z</time>
      </trkpt>
      <trkpt lat="43.50466" lon="6.39239">
        <ele>177.5</ele>
        <time>2015-06-17T08:22:53Z</time>
      </trkpt>
      <trkpt lat="43.5047" lon="6.39218">
        <ele>179.2</ele>
        <time>2015-06-17T08:23:48Z</time>
      </trkpt>
      <trkpt lat="43.50465" lon="6.39208">
        <ele>179.2</ele>
        <time>2015-06-17T08:24:17Z</time>
      </trkpt>
      <trkpt lat="43.50464" lon="6.39208">
        <ele>179.4</ele>
        <time>2015-06-17T08:24:18Z</time>
      </trkpt>
      <trkpt lat="43.50448" lon="6.39207">
        <ele>181.1</ele>
        <time>2015-06-17T08:24:38Z</time>
      </trkpt>
      <trkpt lat="43.50442" lon="6.392">
        <ele>182.8</ele>
        <time>2015-06-17T08:24:51Z</time>
      </trkpt>
      <trkpt lat="43.50435" lon="6.39191">
        <ele>184.8</ele>
        <time>2015-06-17T08:25:06Z</time>
      </trkpt>
      <trkpt lat="43.50429" lon="6.39185">
        <ele>186.3</ele>
        <time>2015-06-17T08:25:18Z</time>
      </trkpt>
      <trkpt lat="43.50428" lon="6.39184">
        <ele>186.2</ele>
        <time>2015-06-17T08:25:19Z</time>
      </trkpt>
      <trkpt lat="43.50413" lon="6.39174">
        <ele>188.4</ele>
        <time>2015-06-17T08:25:39Z</time>
      </trkpt>
      <trkpt lat="43.50408" lon="6.39165">
        <ele>189.4</ele>
        <time>2015-06-17T08:25:50Z</time>
      </trkpt>
      <trkpt lat="43.50403" lon="6.39156">
        <ele>190.3</ele>
        <time>2015-06-17T08:26:02Z</time>
      </trkpt>
      <trkpt lat="43.50398" lon="6.39145">
        <ele>191.1</ele>
        <time>2015-06-17T08:26:17Z</time>
      </trkpt>
      <trkpt lat="43.50394" lon="6.39136">
        <ele>191.4</ele>
        <time>2015-06-17T08:26:28Z</time>
      </trkpt>
      <trkpt lat="43.50393" lon="6.39135">
        <ele>191.2</ele>
        <time>2015-06-17T08:26:29Z</time>
      </trkpt>
      <trkpt lat="43.50383" lon="6.39118">
        <ele>191.6</ele>
        <time>2015-06-17T08:26:43Z</time>
      </trkpt>
      <trkpt lat="43.50377" lon="6.39109">
        <ele>191.4</ele>
        <time>2015-06-17T08:26:52Z</time>
      </trkpt>
      <trkpt lat="43.50374" lon="6.39099">
        <ele>192.2</ele>
        <time>2015-06-17T08:26:59Z</time>
      </trkpt>
      <trkpt lat="43.50367" lon="6.3909">
        <ele>192</ele>
        <time>2015-06-17T08:27:07Z</time>
      </trkpt>
      <trkpt lat="43.50365" lon="6.39079">
        <ele>193.2</ele>
        <time>2015-06-17T08:27:15Z</time>
      </trkpt>
      <trkpt lat="43.5036" lon="6.39068">
        <ele>192.8</ele>
        <time>2015-06-17T08:27:24Z</time>
      </trkpt>
      <trkpt lat="43.50356" lon="6.39058">
        <ele>192.5</ele>
        <time>2015-06-17T08:27:32Z</time>
      </trkpt>
      <trkpt lat="43.50356" lon="6.39057">
        <ele>192.7</ele>
        <time>2015-06-17T08:27:33Z</time>
      </trkpt>
      <trkpt lat="43.50347" lon="6.39038">
        <ele>193.2</ele>
        <time>2015-06-17T08:27:49Z</time>
      </trkpt>
      <trkpt lat="43.50342" lon="6.39029">
        <ele>194.1</ele>
        <time>2015-06-17T08:27:58Z</time>
      </trkpt>
      <trkpt lat="43.50337" lon="6.3902">
        <ele>193.5</ele>
        <time>2015-06-17T08:28:06Z</time>
      </trkpt>
      <trkpt lat="43.50332" lon="6.39011">
        <ele>193.1</ele>
        <time>2015-06-17T08:28:15Z</time>
      </trkpt>
      <trkpt lat="43.50327" lon="6.39001">
        <ele>192.8</ele>
        <time>2015-06-17T08:28:24Z</time>
      </trkpt>
      <trkpt lat="43.50322" lon="6.38991">
        <ele>192.7</ele>
        <time>2015-06-17T08:28:32Z</time>
      </trkpt>
      <trkpt lat="43.50318" lon="6.38981">
        <ele>192</ele>
        <time>2015-06-17T08:28:39Z</time>
      </trkpt>
      <trkpt lat="43.50317" lon="6.3898">
        <ele>192.1</ele>
        <time>2015-06-17T08:28:40Z</time>
      </trkpt>
      <trkpt lat="43.50312" lon="6.38959">
        <ele>191.8</ele>
        <time>2015-06-17T08:28:55Z</time>
      </trkpt>
      <trkpt lat="43.50316" lon="6.38949">
        <ele>191.9</ele>
        <time>2015-06-17T08:29:03Z</time>
      </trkpt>
      <trkpt lat="43.50322" lon="6.3894">
        <ele>192.3</ele>
        <time>2015-06-17T08:29:12Z</time>
      </trkpt>
      <trkpt lat="43.50326" lon="6.38929">
        <ele>192</ele>
        <time>2015-06-17T08:29:21Z</time>
      </trkpt>
      <trkpt lat="43.50329" lon="6.38918">
        <ele>192.6</ele>
        <time>2015-06-17T08:29:31Z</time>
      </trkpt>
      <trkpt lat="43.5033" lon="6.38906">
        <ele>193.2</ele>
        <time>2015-06-17T08:29:43Z</time>
      </trkpt>
      <trkpt lat="43.5033" lon="6.38905">
        <ele>193.4</ele>
        <time>2015-06-17T08:29:44Z</time>
      </trkpt>
      <trkpt lat="43.50332" lon="6.38883">
        <ele>194.4</ele>
        <time>2015-06-17T08:30:03Z</time>
      </trkpt>
      <trkpt lat="43.50334" lon="6.38872">
        <ele>194.7</ele>
        <time>2015-06-17T08:30:13Z</time>
      </trkpt>
      <trkpt lat="43.50342" lon="6.38868">
        <ele>194.8</ele>
        <time>2015-06-17T08:30:20Z</time>
      </trkpt>
      <trkpt lat="43.5035" lon="6.38866">
        <ele>194.9</ele>
        <time>2015-06-17T08:30:31Z</time>
      </trkpt>
      <trkpt lat="43.50358" lon="6.38863">
        <ele>195.7</ele>
        <time>2015-06-17T08:30:40Z</time>
      </trkpt>
      <trkpt lat="43.50367" lon="6.38862">
        <ele>195.2</ele>
        <time>2015-06-17T08:30:50Z</time>
      </trkpt>
      <trkpt lat="43.50368" lon="6.38862">
        <ele>195.2</ele>
        <time>2015-06-17T08:30:51Z</time>
      </trkpt>
      <trkpt lat="43.50383" lon="6.38858">
        <ele>195</ele>
        <time>2015-06-17T08:31:07Z</time>
      </trkpt>
      <trkpt lat="43.5039" lon="6.38853">
        <ele>195.6</ele>
        <time>2015-06-17T08:31:15Z</time>
      </trkpt>
      <trkpt lat="43.50399" lon="6.38851">
        <ele>195.5</ele>
        <time>2015-06-17T08:31:25Z</time>
      </trkpt>
      <trkpt lat="43.50407" lon="6.38846">
        <ele>196.2</ele>
        <time>2015-06-17T08:31:35Z</time>
      </trkpt>
      <trkpt lat="43.50409" lon="6.38834">
        <ele>196.8</ele>
        <time>2015-06-17T08:32:15Z</time>
      </trkpt>
      <trkpt lat="43.50409" lon="6.38834">
        <ele>196.9</ele>
        <time>2015-06-17T08:32:16Z</time>
      </trkpt>
      <trkpt lat="43.50424" lon="6.38826">
        <ele>197.1</ele>
        <time>2015-06-17T08:32:53Z</time>
      </trkpt>
      <trkpt lat="43.50432" lon="6.38827">
        <ele>197</ele>
        <time>2015-06-17T08:33:02Z</time>
      </trkpt>
      <trkpt lat="43.50439" lon="6.38831">
        <ele>197.2</ele>
        <time>2015-06-17T08:33:10Z</time>
      </trkpt>
      <trkpt lat="43.50446" lon="6.38837">
        <ele>196.9</ele>
        <time>2015-06-17T08:33:19Z</time>
      </trkpt>
      <trkpt lat="43.50447" lon="6.38838">
        <ele>196.8</ele>
        <time>2015-06-17T08:33:20Z</time>
      </trkpt>
      <trkpt lat="43.50462" lon="6.38849">
        <ele>196.2</ele>
        <time>2015-06-17T08:33:40Z</time>
      </trkpt>
      <trkpt lat="43.50468" lon="6.38856">
        <ele>196.2</ele>
        <time>2015-06-17T08:33:49Z</time>
      </trkpt>
      <trkpt lat="43.50475" lon="6.38862">
        <ele>195.7</ele>
        <time>2015-06-17T08:34:36Z</time>
      </trkpt>
      <trkpt lat="43.50476" lon="6.38863">
        <ele>195.9</ele>
        <time>2015-06-17T08:34:37Z</time>
      </trkpt>
      <trkpt lat="43.50489" lon="6.38876">
        <ele>194.9</ele>
        <time>2015-06-17T08:34:57Z</time>
      </trkpt>
      <trkpt lat="43.50497" lon="6.38882">
        <ele>195</ele>
        <time>2015-06-17T08:35:07Z</time>
      </trkpt>
      <trkpt lat="43.50504" lon="6.38888">
        <ele>194.7</ele>
        <time>2015-06-17T08:35:17Z</time>
      </trkpt>
      <trkpt lat="43.50511" lon="6.38894">
        <ele>194.3</ele>
        <time>2015-06-17T08:35:26Z</time>
      </trkpt>
      <trkpt lat="43.50518" lon="6.38899">
        <ele>194.2</ele>
        <time>2015-06-17T08:35:35Z</time>
      </trkpt>
      <trkpt lat="43.50526" lon="6.38905">
        <ele>193.7</ele>
        <time>2015-06-17T08:35:44Z</time>
      </trkpt>
      <trkpt lat="43.50527" lon="6.38905">
        <ele>193.7</ele>
        <time>2015-06-17T08:35:45Z</time>
      </trkpt>
      <trkpt lat="43.50542" lon="6.38912">
        <ele>193.6</ele>
        <time>2015-06-17T08:36:10Z</time>
      </trkpt>
      <trkpt lat="43.5055" lon="6.38912">
        <ele>194.2</ele>
        <time>2015-06-17T08:36:21Z</time>
      </trkpt>
      <trkpt lat="43.50558" lon="6.38917">
        <ele>193.6</ele>
        <time>2015-06-17T08:36:34Z</time>
      </trkpt>
      <trkpt lat="43.50567" lon="6.38915">
        <ele>193.6</ele>
        <time>2015-06-17T08:36:48Z</time>
      </trkpt>
      <trkpt lat="43.50568" lon="6.38915">
        <ele>193.5</ele>
        <time>2015-06-17T08:36:49Z</time>
      </trkpt>
      <trkpt lat="43.50584" lon="6.38912">
        <ele>192.1</ele>
        <time>2015-06-17T08:37:04Z</time>
      </trkpt>
      <trkpt lat="43.50592" lon="6.38911">
        <ele>190.5</ele>
        <time>2015-06-17T08:37:13Z</time>
      </trkpt>
      <trkpt lat="43.50601" lon="6.3891">
        <ele>189.3</ele>
        <time>2015-06-17T08:37:22Z</time>
      </trkpt>
      <trkpt lat="43.50609" lon="6.38911">
        <ele>188.2</ele>
        <time>2015-06-17T08:37:30Z</time>
      </trkpt>
      <trkpt lat="43.50616" lon="6.38918">
        <ele>187.7</ele>
        <time>2015-06-17T08:37:40Z</time>
      </trkpt>
      <trkpt lat="43.50623" lon="6.38926">
        <ele>187.5</ele>
        <time>2015-06-17T08:37:51Z</time>
      </trkpt>
      <trkpt lat="43.50623" lon="6.38927">
        <ele>187.6</ele>
        <time>2015-06-17T08:37:52Z</time>
      </trkpt>
      <trkpt lat="43.50631" lon="6.38947">
        <ele>187.2</ele>
        <time>2015-06-17T08:38:10Z</time>
      </trkpt>
      <trkpt lat="43.50635" lon="6.38958">
        <ele>187.1</ele>
        <time>2015-06-17T08:38:21Z</time>
      </trkpt>
      <trkpt lat="43.50637" lon="6.38969">
        <ele>187</ele>
        <time>2015-06-17T08:38:34Z</time>
      </trkpt>
      <trkpt lat="43.50641" lon="6.38979">
        <ele>185</ele>
        <time>2015-06-17T08:38:48Z</time>
      </trkpt>
      <trkpt lat="43.50647" lon="6.38987">
        <ele>183.9</ele>
        <time>2015-06-17T08:39:00Z</time>
      </trkpt>
      <trkpt lat="43.50648" lon="6.38988">
        <ele>183.7</ele>
        <time>2015-06-17T08:39:01Z</time>
      </trkpt>
      <trkpt lat="43.50663" lon="6.38992">
        <ele>182.3</ele>
        <time>2015-06-17T08:39:16Z</time>
      </trkpt>
      <trkpt lat="43.50671" lon="6.38994">
        <ele>182.2</ele>
        <time>2015-06-17T08:39:24Z</time>
      </trkpt>
      <trkpt lat="43.50679" lon="6.38994">
        <ele>181.5</ele>
        <time>2015-06-17T08:39:31Z</time>
      </trkpt>
      <trkpt lat="43.50687" lon="6.38993">
        <ele>179.9</ele>
        <time>2015-06-17T08:39:39Z</time>
      </trkpt>
      <trkpt lat="43.50695" lon="6.38995">
        <ele>179.1</ele>
        <time>2015-06-17T08:39:47Z</time>
      </trkpt>
      <trkpt lat="43.50704" lon="6.38992">
        <ele>178.4</ele>
        <time>2015-06-17T08:39:54Z</time>
      </trkpt>
      <trkpt lat="43.50712" lon="6.3899">
        <ele>177.8</ele>
        <time>2015-06-17T08:40:01Z</time>
      </trkpt>
      <trkpt lat="43.50713" lon="6.38989">
        <ele>177.8</ele>
        <time>2015-06-17T08:40:02Z</time>
      </trkpt>
      <trkpt lat="43.50723" lon="6.38973">
        <ele>181.3</ele>
        <time>2015-06-17T08:46:28Z</time>
      </trkpt>
      <trkpt lat="43.50723" lon="6.38973">
        <ele>181.1</ele>
        <time>2015-06-17T08:46:29Z</time>
      </trkpt>
      <trkpt lat="43.50715" lon="6.38994">
        <ele>185.1</ele>
        <time>2015-06-17T08:49:24Z</time>
      </trkpt>
      <trkpt lat="43.50714" lon="6.38994">
        <ele>185.3</ele>
        <time>2015-06-17T08:49:25Z</time>
      </trkpt>
      <trkpt lat="43.50697" lon="6.38995">
        <ele>185.9</ele>
        <time>2015-06-17T08:49:41Z</time>
      </trkpt>
      <trkpt lat="43.50689" lon="6.38997">
        <ele>186.9</ele>
        <time>2015-06-17T08:49:52Z</time>
      </trkpt>
      <trkpt lat="43.50681" lon="6.39001">
        <ele>187.7</ele>
        <time>2015-06-17T08:50:04Z</time>
      </trkpt>
      <trkpt lat="43.50672" lon="6.39002">
        <ele>188.6</ele>
        <time>2015-06-17T08:50:13Z</time>
      </trkpt>
      <trkpt lat="43.50663" lon="6.39001">
        <ele>190.8</ele>
        <time>2015-06-17T08:50:24Z</time>
      </trkpt>
      <trkpt lat="43.50657" lon="6.38995">
        <ele>192.2</ele>
        <time>2015-06-17T08:50:35Z</time>
      </trkpt>
      <trkpt lat="43.50656" lon="6.38994">
        <ele>192.3</ele>
        <time>2015-06-17T08:50:36Z</time>
      </trkpt>
      <trkpt lat="43.50645" lon="6.38978">
        <ele>194.8</ele>
        <time>2015-06-17T08:50:59Z</time>
      </trkpt>
      <trkpt lat="43.50641" lon="6.38968">
        <ele>194.7</ele>
        <time>2015-06-17T08:51:09Z</time>
      </trkpt>
      <trkpt lat="43.50636" lon="6.38958">
        <ele>195</ele>
        <time>2015-06-17T08:51:17Z</time>
      </trkpt>
      <trkpt lat="43.50632" lon="6.38947">
        <ele>195.2</ele>
        <time>2015-06-17T08:51:24Z</time>
      </trkpt>
      <trkpt lat="43.50627" lon="6.38938">
        <ele>195.1</ele>
        <time>2015-06-17T08:51:32Z</time>
      </trkpt>
      <trkpt lat="43.50623" lon="6.38929">
        <ele>196</ele>
        <time>2015-06-17T08:51:40Z</time>
      </trkpt>
      <trkpt lat="43.50622" lon="6.38928">
        <ele>196.1</ele>
        <time>2015-06-17T08:51:41Z</time>
      </trkpt>
      <trkpt lat="43.50619" lon="6.38907">
        <ele>197.5</ele>
        <time>2015-06-17T08:52:02Z</time>
      </trkpt>
      <trkpt lat="43.50618" lon="6.38896">
        <ele>198.2</ele>
        <time>2015-06-17T08:52:10Z</time>
      </trkpt>
      <trkpt lat="43.50619" lon="6.38884">
        <ele>199.6</ele>
        <time>2015-06-17T08:52:19Z</time>
      </trkpt>
      <trkpt lat="43.50618" lon="6.38872">
        <ele>199.9</ele>
        <time>2015-06-17T08:52:30Z</time>
      </trkpt>
      <trkpt lat="43.50617" lon="6.3886">
        <ele>201.2</ele>
        <time>2015-06-17T08:52:40Z</time>
      </trkpt>
      <trkpt lat="43.50617" lon="6.38848">
        <ele>201.9</ele>
        <time>2015-06-17T08:52:49Z</time>
      </trkpt>
      <trkpt lat="43.50617" lon="6.38846">
        <ele>201.9</ele>
        <time>2015-06-17T08:52:50Z</time>
      </trkpt>
      <trkpt lat="43.50622" lon="6.38826">
        <ele>203</ele>
        <time>2015-06-17T08:53:06Z</time>
      </trkpt>
      <trkpt lat="43.50625" lon="6.38816">
        <ele>204</ele>
        <time>2015-06-17T08:53:14Z</time>
      </trkpt>
      <trkpt lat="43.50628" lon="6.38805">
        <ele>203.6</ele>
        <time>2015-06-17T08:53:21Z</time>
      </trkpt>
      <trkpt lat="43.50631" lon="6.38794">
        <ele>204.3</ele>
        <time>2015-06-17T08:53:29Z</time>
      </trkpt>
      <trkpt lat="43.50635" lon="6.38784">
        <ele>205.5</ele>
        <time>2015-06-17T08:53:35Z</time>
      </trkpt>
      <trkpt lat="43.50639" lon="6.38774">
        <ele>205.5</ele>
        <time>2015-06-17T08:53:43Z</time>
      </trkpt>
      <trkpt lat="43.50641" lon="6.38763">
        <ele>206</ele>
        <time>2015-06-17T08:53:52Z</time>
      </trkpt>
      <trkpt lat="43.50641" lon="6.38761">
        <ele>206.2</ele>
        <time>2015-06-17T08:53:53Z</time>
      </trkpt>
      <trkpt lat="43.50644" lon="6.3874">
        <ele>208.5</ele>
        <time>2015-06-17T08:54:12Z</time>
      </trkpt>
      <trkpt lat="43.50645" lon="6.38728">
        <ele>209.9</ele>
        <time>2015-06-17T08:54:24Z</time>
      </trkpt>
      <trkpt lat="43.50643" lon="6.38717">
        <ele>211.5</ele>
        <time>2015-06-17T08:54:34Z</time>
      </trkpt>
      <trkpt lat="43.50637" lon="6.38708">
        <ele>213.2</ele>
        <time>2015-06-17T08:54:46Z</time>
      </trkpt>
      <trkpt lat="43.50629" lon="6.38706">
        <ele>215.1</ele>
        <time>2015-06-17T08:54:56Z</time>
      </trkpt>
      <trkpt lat="43.50627" lon="6.38706">
        <ele>215.1</ele>
        <time>2015-06-17T08:54:57Z</time>
      </trkpt>
      <trkpt lat="43.50611" lon="6.38702">
        <ele>217.5</ele>
        <time>2015-06-17T08:55:17Z</time>
      </trkpt>
      <trkpt lat="43.50603" lon="6.38698">
        <ele>219.2</ele>
        <time>2015-06-17T08:55:26Z</time>
      </trkpt>
      <trkpt lat="43.50596" lon="6.38691">
        <ele>220.7</ele>
        <time>2015-06-17T08:55:37Z</time>
      </trkpt>
      <trkpt lat="43.50589" lon="6.38686">
        <ele>221.7</ele>
        <time>2015-06-17T08:55:45Z</time>
      </trkpt>
      <trkpt lat="43.50582" lon="6.3868">
        <ele>222.8</ele>
        <time>2015-06-17T08:55:53Z</time>
      </trkpt>
      <trkpt lat="43.50576" lon="6.38671">
        <ele>224.2</ele>
        <time>2015-06-17T08:56:03Z</time>
      </trkpt>
      <trkpt lat="43.50575" lon="6.3867">
        <ele>224.5</ele>
        <time>2015-06-17T08:56:04Z</time>
      </trkpt>
      <trkpt lat="43.50565" lon="6.38653">
        <ele>226.9</ele>
        <time>2015-06-17T08:56:22Z</time>
      </trkpt>
      <trkpt lat="43.50562" lon="6.38642">
        <ele>227.3</ele>
        <time>2015-06-17T08:56:30Z</time>
      </trkpt>
      <trkpt lat="43.5056" lon="6.38631">
        <ele>228.3</ele>
        <time>2015-06-17T08:56:39Z</time>
      </trkpt>
      <trkpt lat="43.50557" lon="6.38619">
        <ele>228.9</ele>
        <time>2015-06-17T08:56:48Z</time>
      </trkpt>
      <trkpt lat="43.50553" lon="6.38609">
        <ele>229</ele>
        <time>2015-06-17T08:56:56Z</time>
      </trkpt>
      <trkpt lat="43.50551" lon="6.38598">
        <ele>229.6</ele>
        <time>2015-06-17T08:57:05Z</time>
      </trkpt>
      <trkpt lat="43.50551" lon="6.38596">
        <ele>229.5</ele>
        <time>2015-06-17T08:57:06Z</time>
      </trkpt>
      <trkpt lat="43.50548" lon="6.38574">
        <ele>230.8</ele>
        <time>2015-06-17T08:57:22Z</time>
      </trkpt>
      <trkpt lat="43.50548" lon="6.38562">
        <ele>231.8</ele>
        <time>2015-06-17T08:57:31Z</time>
      </trkpt>
      <trkpt lat="43.50546" lon="6.38551">
        <ele>232.2</ele>
        <time>2015-06-17T08:57:41Z</time>
      </trkpt>
      <trkpt lat="43.50543" lon="6.38539">
        <ele>233.3</ele>
        <time>2015-06-17T08:57:50Z</time>
      </trkpt>
      <trkpt lat="43.50539" lon="6.38529">
        <ele>234</ele>
        <time>2015-06-17T08:57:58Z</time>
      </trkpt>
      <trkpt lat="43.50536" lon="6.38517">
        <ele>235.8</ele>
        <time>2015-06-17T08:58:10Z</time>
      </trkpt>
      <trkpt lat="43.50537" lon="6.38516">
        <ele>235.8</ele>
        <time>2015-06-17T08:58:11Z</time>
      </trkpt>
      <trkpt lat="43.50533" lon="6.38494">
        <ele>237.9</ele>
        <time>2015-06-17T08:58:29Z</time>
      </trkpt>
      <trkpt lat="43.50531" lon="6.38483">
        <ele>238.9</ele>
        <time>2015-06-17T08:58:38Z</time>
      </trkpt>
      <trkpt lat="43.50526" lon="6.38472">
        <ele>240.3</ele>
        <time>2015-06-17T08:58:46Z</time>
      </trkpt>
      <trkpt lat="43.50524" lon="6.38462">
        <ele>240.7</ele>
        <time>2015-06-17T08:58:54Z</time>
      </trkpt>
      <trkpt lat="43.50522" lon="6.38451">
        <ele>241.5</ele>
        <time>2015-06-17T08:59:01Z</time>
      </trkpt>
      <trkpt lat="43.50519" lon="6.3844">
        <ele>242.9</ele>
        <time>2015-06-17T08:59:10Z</time>
      </trkpt>
      <trkpt lat="43.50515" lon="6.38429">
        <ele>244.2</ele>
        <time>2015-06-17T08:59:25Z</time>
      </trkpt>
      <trkpt lat="43.50515" lon="6.38428">
        <ele>244.2</ele>
        <time>2015-06-17T08:59:26Z</time>
      </trkpt>
      <trkpt lat="43.50508" lon="6.38421">
        <ele>244.5</ele>
        <time>2015-06-17T09:05:41Z</time>
      </trkpt>
      <trkpt lat="43.50498" lon="6.38403">
        <ele>247.1</ele>
        <time>2015-06-17T09:06:07Z</time>
      </trkpt>
      <trkpt lat="43.50494" lon="6.38392">
        <ele>246.9</ele>
        <time>2015-06-17T09:06:16Z</time>
      </trkpt>
      <trkpt lat="43.50488" lon="6.38383">
        <ele>247.5</ele>
        <time>2015-06-17T09:06:27Z</time>
      </trkpt>
      <trkpt lat="43.50481" lon="6.38376">
        <ele>248.2</ele>
        <time>2015-06-17T09:06:36Z</time>
      </trkpt>
      <trkpt lat="43.50477" lon="6.38366">
        <ele>248.6</ele>
        <time>2015-06-17T09:06:44Z</time>
      </trkpt>
      <trkpt lat="43.50476" lon="6.38365">
        <ele>248.8</ele>
        <time>2015-06-17T09:06:45Z</time>
      </trkpt>
      <trkpt lat="43.50466" lon="6.38347">
        <ele>248.5</ele>
        <time>2015-06-17T09:07:00Z</time>
      </trkpt>
      <trkpt lat="43.50462" lon="6.38338">
        <ele>249</ele>
        <time>2015-06-17T09:07:08Z</time>
      </trkpt>
      <trkpt lat="43.50457" lon="6.38328">
        <ele>250.1</ele>
        <time>2015-06-17T09:07:16Z</time>
      </trkpt>
      <trkpt lat="43.50453" lon="6.38317">
        <ele>250.4</ele>
        <time>2015-06-17T09:07:23Z</time>
      </trkpt>
      <trkpt lat="43.5045" lon="6.38306">
        <ele>250.6</ele>
        <time>2015-06-17T09:07:31Z</time>
      </trkpt>
      <trkpt lat="43.50446" lon="6.38296">
        <ele>250.5</ele>
        <time>2015-06-17T09:07:38Z</time>
      </trkpt>
      <trkpt lat="43.50441" lon="6.38287">
        <ele>250.2</ele>
        <time>2015-06-17T09:07:46Z</time>
      </trkpt>
      <trkpt lat="43.50441" lon="6.38286">
        <ele>250.4</ele>
        <time>2015-06-17T09:07:47Z</time>
      </trkpt>
      <trkpt lat="43.50427" lon="6.38276">
        <ele>250.7</ele>
        <time>2015-06-17T09:08:03Z</time>
      </trkpt>
      <trkpt lat="43.50418" lon="6.38276">
        <ele>251.4</ele>
        <time>2015-06-17T09:08:18Z</time>
      </trkpt>
      <trkpt lat="43.5041" lon="6.38277">
        <ele>251.8</ele>
        <time>2015-06-17T09:08:30Z</time>
      </trkpt>
      <trkpt lat="43.50401" lon="6.38275">
        <ele>252.1</ele>
        <time>2015-06-17T09:08:40Z</time>
      </trkpt>
      <trkpt lat="43.50393" lon="6.38272">
        <ele>253.6</ele>
        <time>2015-06-17T09:08:48Z</time>
      </trkpt>
      <trkpt lat="43.50392" lon="6.38271">
        <ele>253.7</ele>
        <time>2015-06-17T09:08:49Z</time>
      </trkpt>
      <trkpt lat="43.50377" lon="6.38261">
        <ele>254.7</ele>
        <time>2015-06-17T09:09:10Z</time>
      </trkpt>
      <trkpt lat="43.5037" lon="6.38254">
        <ele>254.3</ele>
        <time>2015-06-17T09:09:17Z</time>
      </trkpt>
      <trkpt lat="43.50365" lon="6.38245">
        <ele>254.8</ele>
        <time>2015-06-17T09:09:26Z</time>
      </trkpt>
      <trkpt lat="43.50358" lon="6.38239">
        <ele>254.6</ele>
        <time>2015-06-17T09:09:35Z</time>
      </trkpt>
      <trkpt lat="43.50352" lon="6.38231">
        <ele>255</ele>
        <time>2015-06-17T09:09:43Z</time>
      </trkpt>
      <trkpt lat="43.50347" lon="6.38221">
        <ele>255.3</ele>
        <time>2015-06-17T09:09:57Z</time>
      </trkpt>
      <trkpt lat="43.50347" lon="6.3822">
        <ele>255.4</ele>
        <time>2015-06-17T09:09:58Z</time>
      </trkpt>
      <trkpt lat="43.50335" lon="6.38204">
        <ele>255.9</ele>
        <time>2015-06-17T09:10:34Z</time>
      </trkpt>
      <trkpt lat="43.50326" lon="6.38204">
        <ele>256</ele>
        <time>2015-06-17T09:10:43Z</time>
      </trkpt>
      <trkpt lat="43.50318" lon="6.382">
        <ele>255.4</ele>
        <time>2015-06-17T09:10:53Z</time>
      </trkpt>
      <trkpt lat="43.50311" lon="6.38194">
        <ele>255.9</ele>
        <time>2015-06-17T09:11:03Z</time>
      </trkpt>
      <trkpt lat="43.50311" lon="6.38193">
        <ele>255.8</ele>
        <time>2015-06-17T09:11:04Z</time>
      </trkpt>
      <trkpt lat="43.50304" lon="6.38173">
        <ele>255.8</ele>
        <time>2015-06-17T09:11:22Z</time>
      </trkpt>
      <trkpt lat="43.503" lon="6.38163">
        <ele>256.1</ele>
        <time>2015-06-17T09:11:31Z</time>
      </trkpt>
      <trkpt lat="43.50296" lon="6.38153">
        <ele>256.1</ele>
        <time>2015-06-17T09:11:40Z</time>
      </trkpt>
      <trkpt lat="43.50295" lon="6.38141">
        <ele>256</ele>
        <time>2015-06-17T09:11:48Z</time>
      </trkpt>
      <trkpt lat="43.50289" lon="6.38132">
        <ele>256.1</ele>
        <time>2015-06-17T09:11:57Z</time>
      </trkpt>
      <trkpt lat="43.50284" lon="6.38123">
        <ele>256.6</ele>
        <time>2015-06-17T09:12:07Z</time>
      </trkpt>
      <trkpt lat="43.50284" lon="6.38121">
        <ele>256.6</ele>
        <time>2015-06-17T09:12:08Z</time>
      </trkpt>
      <trkpt lat="43.50277" lon="6.38103">
        <ele>257.1</ele>
        <time>2015-06-17T09:12:24Z</time>
      </trkpt>
      <trkpt lat="43.50276" lon="6.38091">
        <ele>257.5</ele>
        <time>2015-06-17T09:12:32Z</time>
      </trkpt>
      <trkpt lat="43.50272" lon="6.3808">
        <ele>257.9</ele>
        <time>2015-06-17T09:12:41Z</time>
      </trkpt>
      <trkpt lat="43.50269" lon="6.38069">
        <ele>257.6</ele>
        <time>2015-06-17T09:12:48Z</time>
      </trkpt>
      <trkpt lat="43.50266" lon="6.38058">
        <ele>258.5</ele>
        <time>2015-06-17T09:12:55Z</time>
      </trkpt>
      <trkpt lat="43.50268" lon="6.38047">
        <ele>258.4</ele>
        <time>2015-06-17T09:13:02Z</time>
      </trkpt>
      <trkpt lat="43.50267" lon="6.38035">
        <ele>258</ele>
        <time>2015-06-17T09:13:10Z</time>
      </trkpt>
      <trkpt lat="43.50267" lon="6.38033">
        <ele>258</ele>
        <time>2015-06-17T09:13:11Z</time>
      </trkpt>
      <trkpt lat="43.50269" lon="6.38011">
        <ele>256.7</ele>
        <time>2015-06-17T09:13:28Z</time>
      </trkpt>
      <trkpt lat="43.5027" lon="6.38">
        <ele>256</ele>
        <time>2015-06-17T09:13:35Z</time>
      </trkpt>
      <trkpt lat="43.50268" lon="6.37989">
        <ele>256.6</ele>
        <time>2015-06-17T09:13:43Z</time>
      </trkpt>
      <trkpt lat="43.50265" lon="6.37978">
        <ele>256.1</ele>
        <time>2015-06-17T09:13:51Z</time>
      </trkpt>
      <trkpt lat="43.50259" lon="6.37969">
        <ele>256.4</ele>
        <time>2015-06-17T09:14:00Z</time>
      </trkpt>
      <trkpt lat="43.50254" lon="6.3796">
        <ele>256.8</ele>
        <time>2015-06-17T09:14:11Z</time>
      </trkpt>
      <trkpt lat="43.50253" lon="6.3796">
        <ele>257</ele>
        <time>2015-06-17T09:14:12Z</time>
      </trkpt>
      <trkpt lat="43.50239" lon="6.37948">
        <ele>260.5</ele>
        <time>2015-06-17T09:14:34Z</time>
      </trkpt>
      <trkpt lat="43.50233" lon="6.37939">
        <ele>261.8</ele>
        <time>2015-06-17T09:14:44Z</time>
      </trkpt>
      <trkpt lat="43.50226" lon="6.37932">
        <ele>262.8</ele>
        <time>2015-06-17T09:14:54Z</time>
      </trkpt>
      <trkpt lat="43.50223" lon="6.37921">
        <ele>263.3</ele>
        <time>2015-06-17T09:15:06Z</time>
      </trkpt>
      <trkpt lat="43.50221" lon="6.37909">
        <ele>264.6</ele>
        <time>2015-06-17T09:15:18Z</time>
      </trkpt>
      <trkpt lat="43.50221" lon="6.37908">
        <ele>264.6</ele>
        <time>2015-06-17T09:15:19Z</time>
      </trkpt>
      <trkpt lat="43.50216" lon="6.37888">
        <ele>265.5</ele>
        <time>2015-06-17T09:15:36Z</time>
      </trkpt>
      <trkpt lat="43.50213" lon="6.37877">
        <ele>266</ele>
        <time>2015-06-17T09:15:44Z</time>
      </trkpt>
      <trkpt lat="43.50211" lon="6.37866">
        <ele>266.5</ele>
        <time>2015-06-17T09:15:51Z</time>
      </trkpt>
      <trkpt lat="43.50209" lon="6.37854">
        <ele>266.3</ele>
        <time>2015-06-17T09:16:01Z</time>
      </trkpt>
      <trkpt lat="43.50208" lon="6.37842">
        <ele>266.7</ele>
        <time>2015-06-17T09:16:10Z</time>
      </trkpt>
      <trkpt lat="43.50207" lon="6.3783">
        <ele>267.1</ele>
        <time>2015-06-17T09:16:18Z</time>
      </trkpt>
      <trkpt lat="43.50208" lon="6.37819">
        <ele>266.9</ele>
        <time>2015-06-17T09:16:27Z</time>
      </trkpt>
      <trkpt lat="43.50208" lon="6.37817">
        <ele>266.6</ele>
        <time>2015-06-17T09:16:28Z</time>
      </trkpt>
      <trkpt lat="43.50205" lon="6.37795">
        <ele>267.7</ele>
        <time>2015-06-17T09:16:46Z</time>
      </trkpt>
      <trkpt lat="43.50202" lon="6.37784">
        <ele>268.2</ele>
        <time>2015-06-17T09:16:55Z</time>
      </trkpt>
      <trkpt lat="43.502" lon="6.37773">
        <ele>268.1</ele>
        <time>2015-06-17T09:17:03Z</time>
      </trkpt>
      <trkpt lat="43.50197" lon="6.37762">
        <ele>268.5</ele>
        <time>2015-06-17T09:17:13Z</time>
      </trkpt>
      <trkpt lat="43.50193" lon="6.37751">
        <ele>268.5</ele>
        <time>2015-06-17T09:17:22Z</time>
      </trkpt>
      <trkpt lat="43.5019" lon="6.3774">
        <ele>268.8</ele>
        <time>2015-06-17T09:17:32Z</time>
      </trkpt>
      <trkpt lat="43.5019" lon="6.37739">
        <ele>268.8</ele>
        <time>2015-06-17T09:17:33Z</time>
      </trkpt>
      <trkpt lat="43.50186" lon="6.37718">
        <ele>270.5</ele>
        <time>2015-06-17T09:17:50Z</time>
      </trkpt>
      <trkpt lat="43.50183" lon="6.37707">
        <ele>270.9</ele>
        <time>2015-06-17T09:17:57Z</time>
      </trkpt>
      <trkpt lat="43.50181" lon="6.37695">
        <ele>272.3</ele>
        <time>2015-06-17T09:18:06Z</time>
      </trkpt>
      <trkpt lat="43.5018" lon="6.37683">
        <ele>273</ele>
        <time>2015-06-17T09:18:13Z</time>
      </trkpt>
      <trkpt lat="43.50181" lon="6.37671">
        <ele>274.2</ele>
        <time>2015-06-17T09:18:25Z</time>
      </trkpt>
      <trkpt lat="43.50178" lon="6.3766">
        <ele>274.9</ele>
        <time>2015-06-17T09:18:37Z</time>
      </trkpt>
      <trkpt lat="43.50178" lon="6.37659">
        <ele>274.9</ele>
        <time>2015-06-17T09:18:38Z</time>
      </trkpt>
      <trkpt lat="43.5017" lon="6.37639">
        <ele>275</ele>
        <time>2015-06-17T09:18:58Z</time>
      </trkpt>
      <trkpt lat="43.50164" lon="6.3763">
        <ele>275.4</ele>
        <time>2015-06-17T09:19:07Z</time>
      </trkpt>
      <trkpt lat="43.50159" lon="6.37621">
        <ele>275.6</ele>
        <time>2015-06-17T09:19:15Z</time>
      </trkpt>
      <trkpt lat="43.50154" lon="6.37612">
        <ele>276</ele>
        <time>2015-06-17T09:19:22Z</time>
      </trkpt>
      <trkpt lat="43.50151" lon="6.37601">
        <ele>277.5</ele>
        <time>2015-06-17T09:19:41Z</time>
      </trkpt>
      <trkpt lat="43.50151" lon="6.376">
        <ele>277.5</ele>
        <time>2015-06-17T09:19:42Z</time>
      </trkpt>
      <trkpt lat="43.50143" lon="6.37593">
        <ele>278.2</ele>
        <time>2015-06-17T09:21:59Z</time>
      </trkpt>
      <trkpt lat="43.50131" lon="6.37578">
        <ele>279.3</ele>
        <time>2015-06-17T09:22:19Z</time>
      </trkpt>
      <trkpt lat="43.50126" lon="6.37569">
        <ele>280.2</ele>
        <time>2015-06-17T09:22:28Z</time>
      </trkpt>
      <trkpt lat="43.50121" lon="6.37559">
        <ele>281.1</ele>
        <time>2015-06-17T09:22:37Z</time>
      </trkpt>
      <trkpt lat="43.50117" lon="6.37549">
        <ele>282</ele>
        <time>2015-06-17T09:22:45Z</time>
      </trkpt>
      <trkpt lat="43.50115" lon="6.37538">
        <ele>282.6</ele>
        <time>2015-06-17T09:22:52Z</time>
      </trkpt>
      <trkpt lat="43.5011" lon="6.37528">
        <ele>283.9</ele>
        <time>2015-06-17T09:23:04Z</time>
      </trkpt>
      <trkpt lat="43.5011" lon="6.37527">
        <ele>284</ele>
        <time>2015-06-17T09:23:05Z</time>
      </trkpt>
      <trkpt lat="43.50101" lon="6.37507">
        <ele>285.1</ele>
        <time>2015-06-17T09:23:24Z</time>
      </trkpt>
      <trkpt lat="43.50096" lon="6.37497">
        <ele>286.3</ele>
        <time>2015-06-17T09:23:35Z</time>
      </trkpt>
      <trkpt lat="43.50093" lon="6.37486">
        <ele>287.1</ele>
        <time>2015-06-17T09:23:47Z</time>
      </trkpt>
      <trkpt lat="43.50089" lon="6.37476">
        <ele>287.9</ele>
        <time>2015-06-17T09:23:59Z</time>
      </trkpt>
      <trkpt lat="43.50085" lon="6.37466">
        <ele>289.2</ele>
        <time>2015-06-17T09:24:10Z</time>
      </trkpt>
      <trkpt lat="43.50085" lon="6.37465">
        <ele>289.6</ele>
        <time>2015-06-17T09:24:11Z</time>
      </trkpt>
      <trkpt lat="43.50083" lon="6.37444">
        <ele>290.9</ele>
        <time>2015-06-17T09:24:29Z</time>
      </trkpt>
      <trkpt lat="43.50081" lon="6.37432">
        <ele>291.9</ele>
        <time>2015-06-17T09:24:39Z</time>
      </trkpt>
      <trkpt lat="43.50083" lon="6.3742">
        <ele>293.1</ele>
        <time>2015-06-17T09:24:47Z</time>
      </trkpt>
      <trkpt lat="43.50084" lon="6.37408">
        <ele>293</ele>
        <time>2015-06-17T09:24:56Z</time>
      </trkpt>
      <trkpt lat="43.50082" lon="6.37396">
        <ele>293.9</ele>
        <time>2015-06-17T09:25:05Z</time>
      </trkpt>
      <trkpt lat="43.50078" lon="6.37386">
        <ele>294.6</ele>
        <time>2015-06-17T09:25:16Z</time>
      </trkpt>
      <trkpt lat="43.50077" lon="6.37385">
        <ele>294.8</ele>
        <time>2015-06-17T09:25:17Z</time>
      </trkpt>
    </trkseg>
  </trk>
</gpx>